Observation data for Mertzon on 05/15/2018      Previous  Date  Next       Current Mesonet Observations  Soil Data  Daily Summary Page  Observations in Plain Language
KME1 150500Z 16007KT 20/15 A2999 RMK A01 T02000147  RH  071%=      5-min Rain = 0
KME1 150501Z 16006KT 20/15 A2999 RMK A01 T02000147  RH  071%=      5-min Rain = 0
KME1 150502Z 16005KT 20/15 A2998 RMK A01 T02000147  RH  071%=      5-min Rain = 0
KME1 150503Z 15006KT 20/15 A2999 RMK A01 T02000146  RH  071%=      5-min Rain = 0
KME1 150504Z 16007KT 20/15 A2999 RMK A01 T02000146  RH  071%=      5-min Rain = 0
KME1 150505Z 16006KT 20/15 A2999 RMK A01 T02000145  RH  071%=      5-min Rain = 0
KME1 150506Z 17006KT 20/15 A2999 RMK A01 T02000145  RH  071%=      5-min Rain = 0
KME1 150507Z 17005KT 20/14 A2999 RMK A01 T02000144  RH  070%=      5-min Rain = 0
KME1 150508Z 17005KT 20/14 A2999 RMK A01 T02000143  RH  070%=      5-min Rain = 0
KME1 150509Z 17006KT 20/14 A2999 RMK A01 T02000143  RH  070%=      5-min Rain = 0
KME1 150510Z 18006KT 20/14 A2999 RMK A01 T02000142  RH  069%=      5-min Rain = 0
KME1 150511Z 18004KT 20/14 A2999 RMK A01 T02010142  RH  069%=      5-min Rain = 0
KME1 150512Z 17006KT 20/14 A2999 RMK A01 T02020142  RH  068%=      5-min Rain = 0
KME1 150513Z 17007KT 20/14 A2999 RMK A01 T02020141  RH  068%=      5-min Rain = 0
KME1 150514Z 19004KT 20/14 A2998 RMK A01 T02030140  RH  067%=      5-min Rain = 0
KME1 150515Z 18005KT 20/14 A2998 RMK A01 T02030140  RH  067%=      5-min Rain = 0
KME1 150516Z 20002KT 20/14 A2998 RMK A01 T02040140  RH  067%=      5-min Rain = 0
KME1 150517Z 20005KT 20/14 A2998 RMK A01 T02040140  RH  067%=      5-min Rain = 0
KME1 150518Z 19005KT 20/14 A2998 RMK A01 T02040139  RH  066%=      5-min Rain = 0
KME1 150519Z 19005KT 20/14 A2999 RMK A01 T02040138  RH  066%=      5-min Rain = 0
KME1 150520Z 22005KT 20/14 A2999 RMK A01 T02040138  RH  066%=      5-min Rain = 0
KME1 150521Z 22005KT 20/14 A2999 RMK A01 T02040138  RH  066%=      5-min Rain = 0
KME1 150522Z 22006KT 20/14 A2999 RMK A01 T02040137  RH  065%=      5-min Rain = 0
KME1 150523Z 21006KT 21/14 A2999 RMK A01 T02050137  RH  065%=      5-min Rain = 0
KME1 150524Z 21007KT 21/14 A2999 RMK A01 T02050137  RH  065%=      5-min Rain = 0
KME1 150525Z 20006KT 21/14 A2999 RMK A01 T02050136  RH  065%=      5-min Rain = 0
KME1 150526Z 20005KT 21/14 A2999 RMK A01 T02060136  RH  064%=      5-min Rain = 0
KME1 150527Z 20005KT 21/14 A2999 RMK A01 T02060136  RH  064%=      5-min Rain = 0
KME1 150528Z 19005KT 21/14 A2999 RMK A01 T02070136  RH  064%=      5-min Rain = 0
KME1 150529Z 17005KT 21/14 A2999 RMK A01 T02060135  RH  064%=      5-min Rain = 0
KME1 150530Z 18004KT 21/14 A2999 RMK A01 T02060135  RH  063%=      5-min Rain = 0
KME1 150531Z 17005KT 21/14 A2999 RMK A01 T02070135  RH  063%=      5-min Rain = 0
KME1 150532Z 17006KT 21/14 A2999 RMK A01 T02070135  RH  063%=      5-min Rain = 0
KME1 150533Z 16005KT 21/13 A2999 RMK A01 T02070134  RH  063%=      5-min Rain = 0
KME1 150534Z 17005KT 21/13 A2999 RMK A01 T02070134  RH  063%=      5-min Rain = 0
KME1 150535Z 17008KT 21/13 A2999 RMK A01 T02070134  RH  063%=      5-min Rain = 0
KME1 150536Z 16009KT 21/13 A2999 RMK A01 T02080134  RH  063%=      5-min Rain = 0
KME1 150537Z 19005KT 21/13 A2999 RMK A01 T02090134  RH  062%=      5-min Rain = 0
KME1 150538Z 16004KT 21/13 A2999 RMK A01 T02090134  RH  062%=      5-min Rain = 0
KME1 150539Z 18004KT 21/14 A2999 RMK A01 T02090135  RH  062%=      5-min Rain = 0
KME1 150540Z 18004KT 21/13 A2999 RMK A01 T02090134  RH  062%=      5-min Rain = 0
KME1 150541Z 18004KT 21/13 A2999 RMK A01 T02080134  RH  063%=      5-min Rain = 0
KME1 150542Z 17006KT 21/13 A2999 RMK A01 T02080134  RH  063%=      5-min Rain = 0
KME1 150543Z 17007KT 21/13 A2999 RMK A01 T02070134  RH  063%=      5-min Rain = 0
KME1 150544Z 17007KT 21/13 A2999 RMK A01 T02080134  RH  063%=      5-min Rain = 0
KME1 150545Z 17005KT 21/13 A2999 RMK A01 T02070134  RH  063%=      5-min Rain = 0
KME1 150546Z 16006KT 21/13 A2999 RMK A01 T02080134  RH  063%=      5-min Rain = 0
KME1 150547Z 17003KT 21/13 A2999 RMK A01 T02080134  RH  063%=      5-min Rain = 0
KME1 150548Z 16005KT 21/13 A2999 RMK A01 T02080134  RH  063%=      5-min Rain = 0
KME1 150549Z 16005KT 21/13 A2998 RMK A01 T02070134  RH  063%=      5-min Rain = 0
KME1 150550Z 15005KT 21/13 A2998 RMK A01 T02080134  RH  063%=      5-min Rain = 0
KME1 150551Z 16006KT 21/13 A2998 RMK A01 T02080134  RH  063%=      5-min Rain = 0
KME1 150552Z 15006KT 21/13 A2998 RMK A01 T02070134  RH  063%=      5-min Rain = 0
KME1 150553Z 15004KT 21/13 A2998 RMK A01 T02070134  RH  063%=      5-min Rain = 0
KME1 150554Z 16004KT 21/13 A2998 RMK A01 T02070134  RH  063%=      5-min Rain = 0
KME1 150555Z 15004KT 21/13 A2998 RMK A01 T02080134  RH  063%=      5-min Rain = 0
KME1 150556Z 18003KT 21/13 A2998 RMK A01 T02070134  RH  063%=      5-min Rain = 0
KME1 150557Z 17005KT 21/13 A2998 RMK A01 T02070134  RH  063%=      5-min Rain = 0
KME1 150558Z 18005KT 21/13 A2998 RMK A01 T02070134  RH  063%=      5-min Rain = 0
KME1 150559Z 18004KT 21/13 A2998 RMK A01 T02070134  RH  063%=      5-min Rain = 0
KME1 150600Z 18004KT 21/13 A2998 RMK A01 T02070133  RH  063%=      5-min Rain = 0
KME1 150601Z 19004KT 21/13 A2998 RMK A01 T02070134  RH  063%=      5-min Rain = 0
KME1 150602Z 18005KT 21/13 A2998 RMK A01 T02070134  RH  063%=      5-min Rain = 0
KME1 150603Z 19005KT 21/13 A2998 RMK A01 T02070134  RH  063%=      5-min Rain = 0
KME1 150604Z 18004KT 21/13 A2998 RMK A01 T02080134  RH  062%=      5-min Rain = 0
KME1 150605Z 19002KT 21/13 A2998 RMK A01 T02080134  RH  062%=      5-min Rain = 0
KME1 150606Z 21003KT 21/13 A2998 RMK A01 T02080133  RH  062%=      5-min Rain = 0
KME1 150607Z 19003KT 21/13 A2998 RMK A01 T02080133  RH  062%=      5-min Rain = 0
KME1 150608Z 19003KT 21/13 A2998 RMK A01 T02080133  RH  062%=      5-min Rain = 0
KME1 150609Z 18006KT 21/13 A2998 RMK A01 T02070133  RH  062%=      5-min Rain = 0
KME1 150610Z 19005KT 21/13 A2998 RMK A01 T02070133  RH  062%=      5-min Rain = 0
KME1 150611Z 21005KT 21/13 A2998 RMK A01 T02080132  RH  062%=      5-min Rain = 0
KME1 150612Z 21004KT 21/13 A2998 RMK A01 T02080132  RH  062%=      5-min Rain = 0
KME1 150613Z 22003KT 21/13 A2998 RMK A01 T02090132  RH  061%=      5-min Rain = 0
KME1 150614Z 21003KT 21/13 A2998 RMK A01 T02090132  RH  061%=      5-min Rain = 0
KME1 150615Z 16004KT 21/13 A2998 RMK A01 T02090132  RH  061%=      5-min Rain = 0
KME1 150616Z 16004KT 21/13 A2998 RMK A01 T02080132  RH  062%=      5-min Rain = 0
KME1 150617Z 17005KT 21/13 A2998 RMK A01 T02080132  RH  062%=      5-min Rain = 0
KME1 150618Z 18005KT 21/13 A2998 RMK A01 T02080131  RH  062%=      5-min Rain = 0
KME1 150619Z 18006KT 21/13 A2998 RMK A01 T02080132  RH  062%=      5-min Rain = 0
KME1 150620Z 17004KT 21/13 A2998 RMK A01 T02080132  RH  062%=      5-min Rain = 0
KME1 150621Z 17005KT 21/13 A2998 RMK A01 T02080132  RH  062%=      5-min Rain = 0
KME1 150622Z 18004KT 21/13 A2997 RMK A01 T02080132  RH  062%=      5-min Rain = 0
KME1 150623Z 18005KT 21/13 A2997 RMK A01 T02080132  RH  062%=      5-min Rain = 0
KME1 150624Z 17005KT 21/13 A2997 RMK A01 T02080131  RH  062%=      5-min Rain = 0
KME1 150625Z 18005KT 21/13 A2997 RMK A01 T02080131  RH  061%=      5-min Rain = 0
KME1 150626Z 17004KT 21/13 A2997 RMK A01 T02080132  RH  061%=      5-min Rain = 0
KME1 150627Z 17003KT 21/13 A2997 RMK A01 T02080132  RH  062%=      5-min Rain = 0
KME1 150628Z 17005KT 21/13 A2997 RMK A01 T02080132  RH  062%=      5-min Rain = 0
KME1 150629Z 16005KT 21/13 A2997 RMK A01 T02070131  RH  062%=      5-min Rain = 0
KME1 150630Z 16006KT 21/13 A2997 RMK A01 T02070132  RH  062%=      5-min Rain = 0
KME1 150631Z 16006KT 21/13 A2997 RMK A01 T02070132  RH  062%=      5-min Rain = 0
KME1 150632Z 16005KT 21/13 A2997 RMK A01 T02070131  RH  062%=      5-min Rain = 0
KME1 150633Z 16005KT 21/13 A2997 RMK A01 T02080132  RH  062%=      5-min Rain = 0
KME1 150634Z 16005KT 21/13 A2997 RMK A01 T02080132  RH  062%=      5-min Rain = 0
KME1 150635Z 16007KT 21/13 A2997 RMK A01 T02070132  RH  062%=      5-min Rain = 0
KME1 150636Z 17006KT 21/13 A2997 RMK A01 T02080132  RH  062%=      5-min Rain = 0
KME1 150637Z 17006KT 21/13 A2997 RMK A01 T02080132  RH  062%=      5-min Rain = 0
KME1 150638Z 17005KT 21/13 A2997 RMK A01 T02080132  RH  062%=      5-min Rain = 0
KME1 150639Z 18005KT 21/13 A2997 RMK A01 T02080132  RH  062%=      5-min Rain = 0
KME1 150640Z 18005KT 21/13 A2997 RMK A01 T02080132  RH  062%=      5-min Rain = 0
KME1 150641Z 19004KT 21/13 A2997 RMK A01 T02070132  RH  062%=      5-min Rain = 0
KME1 150642Z 20004KT 21/13 A2997 RMK A01 T02060132  RH  062%=      5-min Rain = 0
KME1 150643Z 20004KT 21/13 A2997 RMK A01 T02060132  RH  063%=      5-min Rain = 0
KME1 150644Z 20004KT 20/13 A2997 RMK A01 T02040132  RH  063%=      5-min Rain = 0
KME1 150645Z 20004KT 20/13 A2997 RMK A01 T02030131  RH  063%=      5-min Rain = 0
KME1 150646Z 19004KT 20/13 A2997 RMK A01 T02020131  RH  064%=      5-min Rain = 0
KME1 150647Z 19004KT 20/13 A2997 RMK A01 T02010131  RH  064%=      5-min Rain = 0
KME1 150648Z 18005KT 20/13 A2997 RMK A01 T02000131  RH  065%=      5-min Rain = 0
KME1 150649Z 19004KT 20/13 A2997 RMK A01 T01990131  RH  065%=      5-min Rain = 0
KME1 150650Z 18005KT 20/13 A2997 RMK A01 T01990132  RH  065%=      5-min Rain = 0
KME1 150651Z 18005KT 20/13 A2997 RMK A01 T01990132  RH  065%=      5-min Rain = 0
KME1 150652Z 18006KT 20/13 A2997 RMK A01 T01990132  RH  065%=      5-min Rain = 0
KME1 150653Z 18006KT 20/13 A2997 RMK A01 T01990132  RH  065%=      5-min Rain = 0
KME1 150654Z 17007KT 20/13 A2997 RMK A01 T02000133  RH  065%=      5-min Rain = 0
KME1 150655Z 17007KT 20/13 A2997 RMK A01 T02010133  RH  065%=      5-min Rain = 0
KME1 150656Z 17008KT 20/13 A2997 RMK A01 T02010133  RH  065%=      5-min Rain = 0
KME1 150657Z 17006KT 20/13 A2997 RMK A01 T02020133  RH  065%=      5-min Rain = 0
KME1 150658Z 17008KT 20/13 A2997 RMK A01 T02020133  RH  065%=      5-min Rain = 0
KME1 150659Z 17007KT 20/13 A2997 RMK A01 T02030134  RH  064%=      5-min Rain = 0
KME1 150700Z 16008KT 20/13 A2997 RMK A01 T02030134  RH  064%=      5-min Rain = 0
KME1 150701Z 16006KT 20/13 A2997 RMK A01 T02030134  RH  064%=      5-min Rain = 0
KME1 150702Z 16008KT 20/13 A2997 RMK A01 T02030134  RH  064%=      5-min Rain = 0
KME1 150703Z 17008KT 20/13 A2997 RMK A01 T02040134  RH  064%=      5-min Rain = 0
KME1 150704Z 17007KT 20/13 A2997 RMK A01 T02040134  RH  064%=      5-min Rain = 0
KME1 150705Z 17008KT 20/13 A2997 RMK A01 T02040134  RH  064%=      5-min Rain = 0
KME1 150706Z 17007KT 21/13 A2997 RMK A01 T02050134  RH  064%=      5-min Rain = 0
KME1 150707Z 17006KT 21/13 A2997 RMK A01 T02050134  RH  064%=      5-min Rain = 0
KME1 150708Z 18005KT 21/14 A2997 RMK A01 T02050135  RH  064%=      5-min Rain = 0
KME1 150709Z 18005KT 21/14 A2997 RMK A01 T02050135  RH  064%=      5-min Rain = 0
KME1 150710Z 20004KT 21/14 A2997 RMK A01 T02050135  RH  064%=      5-min Rain = 0
KME1 150711Z 22003KT 21/14 A2997 RMK A01 T02050135  RH  064%=      5-min Rain = 0
KME1 150712Z 21002KT 20/13 A2997 RMK A01 T02040134  RH  064%=      5-min Rain = 0
KME1 150713Z 21002KT 20/13 A2997 RMK A01 T02030134  RH  064%=      5-min Rain = 0
KME1 150714Z 21002KT 20/13 A2997 RMK A01 T02030134  RH  065%=      5-min Rain = 0
KME1 150715Z 18004KT 20/13 A2997 RMK A01 T02020133  RH  065%=      5-min Rain = 0
KME1 150716Z 19003KT 20/13 A2997 RMK A01 T02020133  RH  065%=      5-min Rain = 0
KME1 150717Z 18003KT 20/13 A2997 RMK A01 T02020133  RH  065%=      5-min Rain = 0
KME1 150718Z 20002KT 20/13 A2997 RMK A01 T02020133  RH  065%=      5-min Rain = 0
KME1 150719Z 17004KT 20/13 A2997 RMK A01 T02020133  RH  065%=      5-min Rain = 0
KME1 150720Z 21003KT 20/13 A2997 RMK A01 T02020133  RH  065%=      5-min Rain = 0
KME1 150721Z 22002KT 20/13 A2997 RMK A01 T02010133  RH  065%=      5-min Rain = 0
KME1 150722Z 22002KT 20/13 A2997 RMK A01 T02010133  RH  065%=      5-min Rain = 0
KME1 150723Z 22001KT 20/13 A2997 RMK A01 T02000132  RH  065%=      5-min Rain = 0
KME1 150724Z 22002KT 20/13 A2997 RMK A01 T01990132  RH  065%=      5-min Rain = 0
KME1 150725Z 24002KT 20/13 A2997 RMK A01 T01990132  RH  066%=      5-min Rain = 0
KME1 150726Z 24003KT 20/13 A2997 RMK A01 T01980132  RH  066%=      5-min Rain = 0
KME1 150727Z 24003KT 20/13 A2997 RMK A01 T01970132  RH  066%=      5-min Rain = 0
KME1 150728Z 24003KT 20/13 A2997 RMK A01 T01950132  RH  067%=      5-min Rain = 0
KME1 150729Z 22003KT 20/13 A2997 RMK A01 T01950132  RH  067%=      5-min Rain = 0
KME1 150730Z 21003KT 19/13 A2997 RMK A01 T01940131  RH  067%=      5-min Rain = 0
KME1 150731Z 22003KT 19/13 A2997 RMK A01 T01930132  RH  068%=      5-min Rain = 0
KME1 150732Z 21003KT 19/13 A2997 RMK A01 T01930132  RH  068%=      5-min Rain = 0
KME1 150733Z 20004KT 19/13 A2997 RMK A01 T01920132  RH  068%=      5-min Rain = 0
KME1 150734Z 22004KT 19/13 A2996 RMK A01 T01910132  RH  068%=      5-min Rain = 0
KME1 150735Z 22003KT 19/13 A2996 RMK A01 T01900132  RH  069%=      5-min Rain = 0
KME1 150736Z 22003KT 19/13 A2996 RMK A01 T01900132  RH  069%=      5-min Rain = 0
KME1 150737Z 21003KT 19/13 A2996 RMK A01 T01900132  RH  069%=      5-min Rain = 0
KME1 150738Z 21003KT 19/13 A2996 RMK A01 T01890132  RH  069%=      5-min Rain = 0
KME1 150739Z 21004KT 19/13 A2996 RMK A01 T01890133  RH  070%=      5-min Rain = 0
KME1 150740Z 21004KT 19/13 A2996 RMK A01 T01880132  RH  070%=      5-min Rain = 0
KME1 150741Z 21004KT 19/13 A2996 RMK A01 T01870132  RH  070%=      5-min Rain = 0
KME1 150742Z 20005KT 19/13 A2996 RMK A01 T01870132  RH  071%=      5-min Rain = 0
KME1 150743Z 20005KT 19/13 A2996 RMK A01 T01860132  RH  071%=      5-min Rain = 0
KME1 150744Z 20006KT 19/13 A2996 RMK A01 T01860133  RH  071%=      5-min Rain = 0
KME1 150745Z 20005KT 19/13 A2996 RMK A01 T01860133  RH  071%=      5-min Rain = 0
KME1 150746Z 21005KT 19/13 A2996 RMK A01 T01870133  RH  071%=      5-min Rain = 0
KME1 150747Z 21006KT 19/13 A2995 RMK A01 T01870133  RH  071%=      5-min Rain = 0
KME1 150748Z 20006KT 19/13 A2995 RMK A01 T01870133  RH  071%=      5-min Rain = 0
KME1 150749Z 21006KT 19/13 A2995 RMK A01 T01870133  RH  071%=      5-min Rain = 0
KME1 150750Z 20006KT 19/13 A2995 RMK A01 T01870133  RH  071%=      5-min Rain = 0
KME1 150751Z 21006KT 19/13 A2995 RMK A01 T01870133  RH  071%=      5-min Rain = 0
KME1 150752Z 21006KT 19/13 A2995 RMK A01 T01880134  RH  071%=      5-min Rain = 0
KME1 150753Z 20006KT 19/13 A2995 RMK A01 T01880134  RH  071%=      5-min Rain = 0
KME1 150754Z 21006KT 19/13 A2995 RMK A01 T01880134  RH  071%=      5-min Rain = 0
KME1 150755Z 20006KT 19/13 A2995 RMK A01 T01880134  RH  071%=      5-min Rain = 0
KME1 150756Z 20006KT 19/13 A2995 RMK A01 T01880134  RH  071%=      5-min Rain = 0
KME1 150757Z 20006KT 19/13 A2995 RMK A01 T01880134  RH  071%=      5-min Rain = 0
KME1 150758Z 20006KT 19/13 A2995 RMK A01 T01880134  RH  071%=      5-min Rain = 0
KME1 150759Z 20005KT 19/14 A2995 RMK A01 T01890135  RH  071%=      5-min Rain = 0
KME1 150800Z 20006KT 19/14 A2995 RMK A01 T01890135  RH  071%=      5-min Rain = 0
KME1 150801Z 20006KT 19/14 A2995 RMK A01 T01890135  RH  071%=      5-min Rain = 0
KME1 150802Z 20006KT 19/14 A2995 RMK A01 T01890135  RH  071%=      5-min Rain = 0
KME1 150803Z 20006KT 19/14 A2995 RMK A01 T01890135  RH  071%=      5-min Rain = 0
KME1 150804Z 20006KT 19/14 A2995 RMK A01 T01890136  RH  071%=      5-min Rain = 0
KME1 150805Z 21006KT 19/14 A2995 RMK A01 T01900136  RH  071%=      5-min Rain = 0
KME1 150806Z 21005KT 19/14 A2995 RMK A01 T01900136  RH  071%=      5-min Rain = 0
KME1 150807Z 21006KT 19/14 A2995 RMK A01 T01900136  RH  071%=      5-min Rain = 0
KME1 150808Z 21006KT 19/14 A2995 RMK A01 T01890136  RH  071%=      5-min Rain = 0
KME1 150809Z 21006KT 19/14 A2994 RMK A01 T01900137  RH  071%=      5-min Rain = 0
KME1 150810Z 20006KT 19/14 A2994 RMK A01 T01900137  RH  071%=      5-min Rain = 0
KME1 150811Z 19008KT 19/14 A2994 RMK A01 T01910138  RH  071%=      5-min Rain = 0
KME1 150812Z 19007KT 19/14 A2994 RMK A01 T01920139  RH  071%=      5-min Rain = 0
KME1 150813Z 19007KT 19/14 A2994 RMK A01 T01940140  RH  071%=      5-min Rain = 0
KME1 150814Z 20006KT 20/14 A2994 RMK A01 T01950140  RH  071%=      5-min Rain = 0
KME1 150815Z 20006KT 20/14 A2994 RMK A01 T01960141  RH  070%=      5-min Rain = 0
KME1 150816Z 20006KT 20/14 A2994 RMK A01 T01960141  RH  070%=      5-min Rain = 0
KME1 150817Z 20006KT 20/14 A2994 RMK A01 T01960140  RH  070%=      5-min Rain = 0
KME1 150818Z 20005KT 20/14 A2994 RMK A01 T01960141  RH  070%=      5-min Rain = 0
KME1 150819Z 20005KT 20/14 A2994 RMK A01 T01960140  RH  070%=      5-min Rain = 0
KME1 150820Z 22003KT 20/14 A2994 RMK A01 T01960140  RH  070%=      5-min Rain = 0
KME1 150821Z 21006KT 20/14 A2994 RMK A01 T01950140  RH  070%=      5-min Rain = 0
KME1 150822Z 21007KT 19/14 A2994 RMK A01 T01940139  RH  071%=      5-min Rain = 0
KME1 150823Z 21006KT 19/14 A2994 RMK A01 T01940140  RH  071%=      5-min Rain = 0
KME1 150824Z 20007KT 19/14 A2994 RMK A01 T01930139  RH  071%=      5-min Rain = 0
KME1 150825Z 20007KT 19/14 A2994 RMK A01 T01930140  RH  071%=      5-min Rain = 0
KME1 150826Z 20007KT 19/14 A2993 RMK A01 T01940140  RH  071%=      5-min Rain = 0
KME1 150827Z 20006KT 19/14 A2993 RMK A01 T01940140  RH  071%=      5-min Rain = 0
KME1 150828Z 20008KT 19/14 A2993 RMK A01 T01940141  RH  071%=      5-min Rain = 0
KME1 150829Z 20009KT 20/14 A2993 RMK A01 T01950141  RH  071%=      5-min Rain = 0
KME1 150830Z 19007KT 20/14 A2993 RMK A01 T01960142  RH  071%=      5-min Rain = 0
KME1 150831Z 20007KT 20/14 A2993 RMK A01 T01960142  RH  071%=      5-min Rain = 0
KME1 150832Z 20009KT 20/14 A2993 RMK A01 T01960142  RH  071%=      5-min Rain = 0
KME1 150833Z 20009KT 20/14 A2993 RMK A01 T01970143  RH  071%=      5-min Rain = 0
KME1 150834Z 20008KT 20/14 A2993 RMK A01 T01970143  RH  071%=      5-min Rain = 0
KME1 150835Z 19008KT 20/14 A2993 RMK A01 T01970143  RH  071%=      5-min Rain = 0
KME1 150836Z 20006KT 20/14 A2993 RMK A01 T01970143  RH  071%=      5-min Rain = 0
KME1 150837Z 20007KT 20/14 A2993 RMK A01 T01970143  RH  071%=      5-min Rain = 0
KME1 150838Z 20007KT 20/14 A2993 RMK A01 T01970143  RH  071%=      5-min Rain = 0
KME1 150839Z 20008KT 20/14 A2993 RMK A01 T01970143  RH  071%=      5-min Rain = 0
KME1 150840Z 20007KT 20/14 A2993 RMK A01 T01970143  RH  071%=      5-min Rain = 0
KME1 150841Z 20008KT 20/14 A2993 RMK A01 T01970143  RH  071%=      5-min Rain = 0
KME1 150842Z 20008KT 20/14 A2993 RMK A01 T01970143  RH  071%=      5-min Rain = 0
KME1 150843Z 20008KT 20/14 A2992 RMK A01 T01970144  RH  071%=      5-min Rain = 0
KME1 150844Z 20006KT 20/14 A2992 RMK A01 T01970143  RH  071%=      5-min Rain = 0
KME1 150845Z 20008G13KT 20/14 A2992 RMK A01 T01980144  RH  071%=      5-min Rain = 0
KME1 150846Z 20009KT 20/14 A2992 RMK A01 T01980144  RH  071%=      5-min Rain = 0
KME1 150847Z 20008KT 20/14 A2992 RMK A01 T01970144  RH  071%=      5-min Rain = 0
KME1 150848Z 19008KT 20/14 A2992 RMK A01 T01980144  RH  071%=      5-min Rain = 0
KME1 150849Z 19009KT 20/14 A2992 RMK A01 T01980144  RH  071%=      5-min Rain = 0
KME1 150850Z 19008KT 20/15 A2992 RMK A01 T01980145  RH  071%=      5-min Rain = 0
KME1 150851Z 19009KT 20/15 A2992 RMK A01 T01980145  RH  071%=      5-min Rain = 0
KME1 150852Z 19007KT 20/15 A2992 RMK A01 T01990145  RH  071%=      5-min Rain = 0
KME1 150853Z 19006KT 20/15 A2992 RMK A01 T01990145  RH  071%=      5-min Rain = 0
KME1 150854Z 19007KT 20/15 A2992 RMK A01 T01990145  RH  071%=      5-min Rain = 0
KME1 150855Z 19008KT 20/15 A2992 RMK A01 T01990146  RH  071%=      5-min Rain = 0
KME1 150856Z 19009KT 20/15 A2992 RMK A01 T01990146  RH  072%=      5-min Rain = 0
KME1 150857Z 18008KT 20/15 A2992 RMK A01 T01990147  RH  072%=      5-min Rain = 0
KME1 150858Z 19007KT 20/15 A2992 RMK A01 T02000148  RH  072%=      5-min Rain = 0
KME1 150859Z 19007KT 20/15 A2992 RMK A01 T02010148  RH  072%=      5-min Rain = 0
KME1 150900Z 18009KT 20/15 A2992 RMK A01 T02010148  RH  072%=      5-min Rain = 0
KME1 150901Z 18009KT 20/15 A2992 RMK A01 T02010149  RH  072%=      5-min Rain = 0
KME1 150902Z 19008KT 20/15 A2992 RMK A01 T02010149  RH  072%=      5-min Rain = 0
KME1 150903Z 18007KT 20/15 A2992 RMK A01 T02010149  RH  072%=      5-min Rain = 0
KME1 150904Z 18006KT 20/15 A2992 RMK A01 T02020149  RH  072%=      5-min Rain = 0
KME1 150905Z 19008KT 20/15 A2992 RMK A01 T02020150  RH  072%=      5-min Rain = 0
KME1 150906Z 19008KT 20/15 A2992 RMK A01 T02020150  RH  072%=      5-min Rain = 0
KME1 150907Z 19006KT 20/15 A2992 RMK A01 T02020151  RH  072%=      5-min Rain = 0
KME1 150908Z 18006KT 20/15 A2992 RMK A01 T02020151  RH  072%=      5-min Rain = 0
KME1 150909Z 18007KT 20/15 A2992 RMK A01 T02020151  RH  073%=      5-min Rain = 0
KME1 150910Z 18007KT 20/15 A2992 RMK A01 T02020152  RH  073%=      5-min Rain = 0
KME1 150911Z 18007KT 20/15 A2992 RMK A01 T02030152  RH  073%=      5-min Rain = 0
KME1 150912Z 18007KT 20/15 A2992 RMK A01 T02020152  RH  073%=      5-min Rain = 0
KME1 150913Z 18006KT 20/15 A2992 RMK A01 T02030153  RH  073%=      5-min Rain = 0
KME1 150914Z 18008KT 20/15 A2992 RMK A01 T02030153  RH  073%=      5-min Rain = 0
KME1 150915Z 19009KT 20/15 A2992 RMK A01 T02020153  RH  073%=      5-min Rain = 0
KME1 150916Z 19007KT 20/15 A2992 RMK A01 T02030154  RH  073%=      5-min Rain = 0
KME1 150917Z 19006KT 20/15 A2992 RMK A01 T02030153  RH  073%=      5-min Rain = 0
KME1 150918Z 18007KT 20/15 A2992 RMK A01 T02030154  RH  073%=      5-min Rain = 0
KME1 150919Z 18009KT 20/15 A2992 RMK A01 T02030154  RH  073%=      5-min Rain = 0
KME1 150920Z 19007KT 20/15 A2992 RMK A01 T02030154  RH  073%=      5-min Rain = 0
KME1 150921Z 19007KT 20/15 A2992 RMK A01 T02030154  RH  073%=      5-min Rain = 0
KME1 150922Z 20008KT 20/15 A2992 RMK A01 T02030154  RH  073%=      5-min Rain = 0
KME1 150923Z 19009KT 20/15 A2992 RMK A01 T02040154  RH  073%=      5-min Rain = 0
KME1 150924Z 18008KT 20/16 A2992 RMK A01 T02040155  RH  073%=      5-min Rain = 0
KME1 150925Z 19007KT 20/15 A2992 RMK A01 T02040154  RH  073%=      5-min Rain = 0
KME1 150926Z 19007KT 20/16 A2992 RMK A01 T02040155  RH  073%=      5-min Rain = 0
KME1 150927Z 18007KT 20/16 A2992 RMK A01 T02040155  RH  073%=      5-min Rain = 0
KME1 150928Z 18009KT 20/16 A2992 RMK A01 T02040156  RH  074%=      5-min Rain = 0
KME1 150929Z 19007KT 20/16 A2992 RMK A01 T02040156  RH  074%=      5-min Rain = 0
KME1 150930Z 19009KT 20/16 A2992 RMK A01 T02040156  RH  074%=      5-min Rain = 0
KME1 150931Z 18010KT 20/16 A2992 RMK A01 T02040156  RH  074%=      5-min Rain = 0
KME1 150932Z 18009KT 21/16 A2992 RMK A01 T02050156  RH  074%=      5-min Rain = 0
KME1 150933Z 19007KT 21/16 A2992 RMK A01 T02050156  RH  074%=      5-min Rain = 0
KME1 150934Z 19008KT 21/16 A2992 RMK A01 T02050156  RH  074%=      5-min Rain = 0
KME1 150935Z 19010KT 21/16 A2992 RMK A01 T02050157  RH  074%=      5-min Rain = 0
KME1 150936Z 19007KT 21/16 A2992 RMK A01 T02050157  RH  074%=      5-min Rain = 0
KME1 150937Z 19006KT 21/16 A2992 RMK A01 T02050157  RH  074%=      5-min Rain = 0
KME1 150938Z 18007KT 21/16 A2992 RMK A01 T02050157  RH  074%=      5-min Rain = 0
KME1 150939Z 19008KT 21/16 A2992 RMK A01 T02050157  RH  074%=      5-min Rain = 0
KME1 150940Z 19009KT 21/16 A2992 RMK A01 T02050158  RH  074%=      5-min Rain = 0
KME1 150941Z 18009KT 21/16 A2992 RMK A01 T02050158  RH  074%=      5-min Rain = 0
KME1 150942Z 18009KT 21/16 A2992 RMK A01 T02050158  RH  074%=      5-min Rain = 0
KME1 150943Z 19009KT 21/16 A2992 RMK A01 T02060158  RH  074%=      5-min Rain = 0
KME1 150944Z 18007KT 21/16 A2992 RMK A01 T02060158  RH  074%=      5-min Rain = 0
KME1 150945Z 18009KT 21/16 A2992 RMK A01 T02060158  RH  074%=      5-min Rain = 0
KME1 150946Z 18008KT 21/16 A2992 RMK A01 T02060158  RH  074%=      5-min Rain = 0
KME1 150947Z 19008KT 21/16 A2992 RMK A01 T02060159  RH  074%=      5-min Rain = 0
KME1 150948Z 18008KT 21/16 A2992 RMK A01 T02060159  RH  074%=      5-min Rain = 0
KME1 150949Z 18008KT 21/16 A2992 RMK A01 T02050158  RH  074%=      5-min Rain = 0
KME1 150950Z 18007KT 21/16 A2992 RMK A01 T02060159  RH  074%=      5-min Rain = 0
KME1 150951Z 19009KT 21/16 A2992 RMK A01 T02060159  RH  074%=      5-min Rain = 0
KME1 150952Z 18009KT 21/16 A2992 RMK A01 T02060159  RH  074%=      5-min Rain = 0
KME1 150953Z 18010KT 21/16 A2993 RMK A01 T02060159  RH  075%=      5-min Rain = 0
KME1 150954Z 18009KT 21/16 A2993 RMK A01 T02060159  RH  074%=      5-min Rain = 0
KME1 150955Z 18007KT 21/16 A2993 RMK A01 T02060159  RH  074%=      5-min Rain = 0
KME1 150956Z 19007KT 21/16 A2993 RMK A01 T02060159  RH  074%=      5-min Rain = 0
KME1 150957Z 18008KT 21/16 A2993 RMK A01 T02060159  RH  075%=      5-min Rain = 0
KME1 150958Z 19007KT 21/16 A2993 RMK A01 T02050159  RH  075%=      5-min Rain = 0
KME1 150959Z 19008KT 21/16 A2992 RMK A01 T02050159  RH  075%=      5-min Rain = 0
KME1 151000Z 19007KT 21/16 A2992 RMK A01 T02050159  RH  075%=      5-min Rain = 0
KME1 151001Z 19007KT 20/16 A2992 RMK A01 T02040159  RH  075%=      5-min Rain = 0
KME1 151002Z 19010KT 20/16 A2992 RMK A01 T02040159  RH  075%=      5-min Rain = 0
KME1 151003Z 19009KT 20/16 A2993 RMK A01 T02040159  RH  075%=      5-min Rain = 0
KME1 151004Z 19007KT 20/16 A2993 RMK A01 T02040159  RH  075%=      5-min Rain = 0
KME1 151005Z 19006KT 20/16 A2993 RMK A01 T02040159  RH  075%=      5-min Rain = 0
KME1 151006Z 19008KT 20/16 A2993 RMK A01 T02040159  RH  075%=      5-min Rain = 0
KME1 151007Z 19007KT 20/16 A2993 RMK A01 T02040159  RH  076%=      5-min Rain = 0
KME1 151008Z 18008KT 20/16 A2993 RMK A01 T02030159  RH  076%=      5-min Rain = 0
KME1 151009Z 19008KT 20/16 A2993 RMK A01 T02030159  RH  076%=      5-min Rain = 0
KME1 151010Z 19009KT 20/16 A2993 RMK A01 T02030159  RH  076%=      5-min Rain = 0
KME1 151011Z 19009KT 20/16 A2993 RMK A01 T02030159  RH  076%=      5-min Rain = 0
KME1 151012Z 19007KT 20/16 A2993 RMK A01 T02030159  RH  076%=      5-min Rain = 0
KME1 151013Z 19009KT 20/16 A2993 RMK A01 T02020159  RH  076%=      5-min Rain = 0
KME1 151014Z 19008KT 20/16 A2993 RMK A01 T02020159  RH  076%=      5-min Rain = 0
KME1 151015Z 19008KT 20/16 A2992 RMK A01 T02030160  RH  076%=      5-min Rain = 0
KME1 151016Z 19010KT 20/16 A2992 RMK A01 T02020160  RH  076%=      5-min Rain = 0
KME1 151017Z 19010KT 20/16 A2992 RMK A01 T02020160  RH  077%=      5-min Rain = 0
KME1 151018Z 19009KT 20/16 A2992 RMK A01 T02020160  RH  077%=      5-min Rain = 0
KME1 151019Z 20007KT 20/16 A2992 RMK A01 T02020159  RH  076%=      5-min Rain = 0
KME1 151020Z 19009KT 20/16 A2992 RMK A01 T02020160  RH  077%=      5-min Rain = 0
KME1 151021Z 19007KT 20/16 A2992 RMK A01 T02020160  RH  077%=      5-min Rain = 0
KME1 151022Z 19008KT 20/16 A2992 RMK A01 T02020160  RH  077%=      5-min Rain = 0
KME1 151023Z 18006KT 20/16 A2992 RMK A01 T02020160  RH  077%=      5-min Rain = 0
KME1 151024Z 19008KT 20/16 A2992 RMK A01 T02020160  RH  077%=      5-min Rain = 0
KME1 151025Z 19008KT 20/16 A2992 RMK A01 T02020161  RH  077%=      5-min Rain = 0
KME1 151026Z 19007KT 20/16 A2992 RMK A01 T02010160  RH  077%=      5-min Rain = 0
KME1 151027Z 19007KT 20/16 A2992 RMK A01 T02010161  RH  077%=      5-min Rain = 0
KME1 151028Z 19007KT 20/16 A2992 RMK A01 T02010160  RH  078%=      5-min Rain = 0
KME1 151029Z 19008KT 20/16 A2992 RMK A01 T02000160  RH  078%=      5-min Rain = 0
KME1 151030Z 19010KT 20/16 A2992 RMK A01 T02000161  RH  078%=      5-min Rain = 0
KME1 151031Z 18009KT 20/16 A2992 RMK A01 T02000161  RH  078%=      5-min Rain = 0
KME1 151032Z 19009KT 20/16 A2992 RMK A01 T02000161  RH  078%=      5-min Rain = 0
KME1 151033Z 19009KT 20/16 A2992 RMK A01 T02000161  RH  078%=      5-min Rain = 0
KME1 151034Z 19008KT 20/16 A2992 RMK A01 T02000161  RH  078%=      5-min Rain = 0
KME1 151035Z 18009KT 20/16 A2992 RMK A01 T02000161  RH  078%=      5-min Rain = 0
KME1 151036Z 18009G14KT 20/16 A2992 RMK A01 T02000162  RH  079%=      5-min Rain = 0
KME1 151037Z 18007KT 20/16 A2992 RMK A01 T02000162  RH  079%=      5-min Rain = 0
KME1 151038Z 18008KT 20/16 A2992 RMK A01 T02000162  RH  079%=      5-min Rain = 0
KME1 151039Z 18007KT 20/16 A2992 RMK A01 T02000163  RH  079%=      5-min Rain = 0
KME1 151040Z 18009KT 20/16 A2992 RMK A01 T02000163  RH  079%=      5-min Rain = 0
KME1 151041Z 18009KT 20/16 A2992 RMK A01 T02000163  RH  079%=      5-min Rain = 0
KME1 151042Z 18008KT 20/16 A2992 RMK A01 T02000163  RH  080%=      5-min Rain = 0
KME1 151043Z 18008KT 20/16 A2992 RMK A01 T02000164  RH  080%=      5-min Rain = 0
KME1 151044Z 18007KT 20/16 A2992 RMK A01 T02000164  RH  080%=      5-min Rain = 0
KME1 151045Z 18007KT 20/16 A2992 RMK A01 T02000164  RH  080%=      5-min Rain = 0
KME1 151046Z 18008KT 20/16 A2992 RMK A01 T02000164  RH  080%=      5-min Rain = 0
KME1 151047Z 18008KT 20/17 A2992 RMK A01 T02000165  RH  080%=      5-min Rain = 0
KME1 151048Z 19008KT 20/17 A2992 RMK A01 T02000165  RH  080%=      5-min Rain = 0
KME1 151049Z 19009KT 20/17 A2993 RMK A01 T02000165  RH  081%=      5-min Rain = 0
KME1 151050Z 18007KT 20/17 A2993 RMK A01 T02000166  RH  081%=      5-min Rain = 0
KME1 151051Z 18008KT 20/17 A2993 RMK A01 T02000166  RH  081%=      5-min Rain = 0
KME1 151052Z 19007KT 20/17 A2993 RMK A01 T02000166  RH  081%=      5-min Rain = 0
KME1 151053Z 18006KT 20/17 A2992 RMK A01 T02000166  RH  081%=      5-min Rain = 0
KME1 151054Z 18006KT 20/17 A2992 RMK A01 T02000167  RH  081%=      5-min Rain = 0
KME1 151055Z 18008KT 20/17 A2992 RMK A01 T02000167  RH  081%=      5-min Rain = 0
KME1 151056Z 18009KT 20/17 A2992 RMK A01 T02000168  RH  082%=      5-min Rain = 0
KME1 151057Z 18009KT 20/17 A2992 RMK A01 T02000168  RH  082%=      5-min Rain = 0
KME1 151058Z 18010KT 20/17 A2992 RMK A01 T02000169  RH  082%=      5-min Rain = 0
KME1 151059Z 18010KT 20/17 A2992 RMK A01 T02000169  RH  082%=      5-min Rain = 0
KME1 151100Z 17010KT 20/17 A2992 RMK A01 T02010170  RH  082%=      5-min Rain = 0
KME1 151101Z 18009KT 20/17 A2992 RMK A01 T02010170  RH  082%=      5-min Rain = 0
KME1 151102Z 18009KT 20/17 A2992 RMK A01 T02010170  RH  082%=      5-min Rain = 0
KME1 151103Z 18008KT 20/17 A2992 RMK A01 T02010170  RH  082%=      5-min Rain = 0
KME1 151104Z 18007KT 20/17 A2992 RMK A01 T02010170  RH  082%=      5-min Rain = 0
KME1 151105Z 18008G13KT 20/17 A2992 RMK A01 T02010170  RH  082%=      5-min Rain = 0
KME1 151106Z 18009KT 20/17 A2992 RMK A01 T02010171  RH  083%=      5-min Rain = 0
KME1 151107Z 18010KT 20/17 A2992 RMK A01 T02010171  RH  083%=      5-min Rain = 0
KME1 151108Z 18012KT 20/17 A2992 RMK A01 T02020172  RH  083%=      5-min Rain = 0
KME1 151109Z 19009KT 20/17 A2992 RMK A01 T02020172  RH  083%=      5-min Rain = 0
KME1 151110Z 19010KT 20/17 A2992 RMK A01 T02020172  RH  083%=      5-min Rain = 0
KME1 151111Z 18010KT 20/17 A2992 RMK A01 T02020172  RH  083%=      5-min Rain = 0
KME1 151112Z 18011KT 20/17 A2992 RMK A01 T02030172  RH  083%=      5-min Rain = 0
KME1 151113Z 18011KT 20/17 A2992 RMK A01 T02020172  RH  083%=      5-min Rain = 0
KME1 151114Z 18009KT 20/17 A2992 RMK A01 T02020172  RH  083%=      5-min Rain = 0
KME1 151115Z 18011KT 20/17 A2992 RMK A01 T02020173  RH  083%=      5-min Rain = 0
KME1 151116Z 19010KT 20/17 A2992 RMK A01 T02030173  RH  083%=      5-min Rain = 0
KME1 151117Z 19012KT 20/17 A2992 RMK A01 T02030173  RH  083%=      5-min Rain = 0
KME1 151118Z 19009KT 20/17 A2992 RMK A01 T02030173  RH  083%=      5-min Rain = 0
KME1 151119Z 19012KT 20/17 A2992 RMK A01 T02030173  RH  083%=      5-min Rain = 0
KME1 151120Z 18011KT 20/17 A2992 RMK A01 T02030174  RH  083%=      5-min Rain = 0
KME1 151121Z 19012KT 20/17 A2992 RMK A01 T02040174  RH  083%=      5-min Rain = 0
KME1 151122Z 19010KT 20/17 A2992 RMK A01 T02030174  RH  083%=      5-min Rain = 0
KME1 151123Z 19009G14KT 20/17 A2992 RMK A01 T02030174  RH  083%=      5-min Rain = 0
KME1 151124Z 18009KT 20/17 A2992 RMK A01 T02030174  RH  083%=      5-min Rain = 0
KME1 151125Z 19011KT 20/18 A2992 RMK A01 T02030175  RH  084%=      5-min Rain = 0
KME1 151126Z 19011KT 20/18 A2992 RMK A01 T02030175  RH  084%=      5-min Rain = 0
KME1 151127Z 18010KT 20/18 A2993 RMK A01 T02030176  RH  084%=      5-min Rain = 0
KME1 151128Z 19011KT 20/18 A2993 RMK A01 T02030176  RH  084%=      5-min Rain = 0
KME1 151129Z 19009KT 20/18 A2993 RMK A01 T02040176  RH  084%=      5-min Rain = 0
KME1 151130Z 19010KT 20/18 A2993 RMK A01 T02030176  RH  084%=      5-min Rain = 0
KME1 151131Z 19011G16KT 20/18 A2993 RMK A01 T02030177  RH  085%=      5-min Rain = 0
KME1 151132Z 19011KT 20/18 A2993 RMK A01 T02040178  RH  085%=      5-min Rain = 0
KME1 151133Z 19011KT 20/18 A2993 RMK A01 T02040178  RH  085%=      5-min Rain = 0
KME1 151134Z 19011KT 21/18 A2993 RMK A01 T02050179  RH  085%=      5-min Rain = 0
KME1 151135Z 18010KT 21/18 A2993 RMK A01 T02050179  RH  085%=      5-min Rain = 0
KME1 151136Z 19011KT 21/18 A2993 RMK A01 T02050179  RH  085%=      5-min Rain = 0
KME1 151137Z 19012KT 21/18 A2993 RMK A01 T02050179  RH  085%=      5-min Rain = 0
KME1 151138Z 18007KT 21/18 A2993 RMK A01 T02050179  RH  085%=      5-min Rain = 0
KME1 151139Z 19010KT 21/18 A2993 RMK A01 T02050180  RH  085%=      5-min Rain = 0
KME1 151140Z 19012KT 21/18 A2993 RMK A01 T02050180  RH  085%=      5-min Rain = 0
KME1 151141Z 18011KT 21/18 A2993 RMK A01 T02060181  RH  085%=      5-min Rain = 0
KME1 151142Z 19010KT 21/18 A2993 RMK A01 T02060180  RH  085%=      5-min Rain = 0
KME1 151143Z 19010KT 21/18 A2993 RMK A01 T02060180  RH  085%=      5-min Rain = 0
KME1 151144Z 18012G17KT 21/18 A2993 RMK A01 T02060181  RH  086%=      5-min Rain = 0
KME1 151145Z 18008KT 21/18 A2993 RMK A01 T02060181  RH  086%=      5-min Rain = 0
KME1 151146Z 18010KT 21/18 A2993 RMK A01 T02060181  RH  086%=      5-min Rain = 0
KME1 151147Z 18012KT 21/18 A2993 RMK A01 T02060181  RH  086%=      5-min Rain = 0
KME1 151148Z 18011KT 21/18 A2993 RMK A01 T02070181  RH  085%=      5-min Rain = 0
KME1 151149Z 18009KT 21/18 A2993 RMK A01 T02070182  RH  085%=      5-min Rain = 0
KME1 151150Z 18011KT 21/18 A2993 RMK A01 T02070181  RH  085%=      5-min Rain = 0
KME1 151151Z 19011G18KT 21/18 A2993 RMK A01 T02070181  RH  085%=      5-min Rain = 0
KME1 151152Z 19014KT 21/18 A2993 RMK A01 T02070182  RH  085%=      5-min Rain = 0
KME1 151153Z 19012KT 21/18 A2993 RMK A01 T02080182  RH  085%=      5-min Rain = 0
KME1 151154Z 18010KT 21/18 A2993 RMK A01 T02080182  RH  085%=      5-min Rain = 0
KME1 151155Z 19009KT 21/18 A2994 RMK A01 T02080182  RH  085%=      5-min Rain = 0
KME1 151156Z 18011KT 21/18 A2994 RMK A01 T02090182  RH  085%=      5-min Rain = 0
KME1 151157Z 18010KT 21/18 A2994 RMK A01 T02080182  RH  085%=      5-min Rain = 0
KME1 151158Z 18012KT 21/18 A2994 RMK A01 T02090183  RH  085%=      5-min Rain = 0
KME1 151159Z 18011KT 21/18 A2994 RMK A01 T02090183  RH  085%=      5-min Rain = 0
KME1 151200Z 19010KT 21/18 A2994 RMK A01 T02100183  RH  085%=      5-min Rain = 0
KME1 151201Z 19008KT 21/18 A2994 RMK A01 T02100183  RH  085%=      5-min Rain = 0
KME1 151202Z 19009KT 21/18 A2994 RMK A01 T02100183  RH  084%=      5-min Rain = 0
KME1 151203Z 18014KT 21/18 A2994 RMK A01 T02100183  RH  085%=      5-min Rain = 0
KME1 151204Z 18012KT 21/18 A2994 RMK A01 T02110184  RH  085%=      5-min Rain = 0
KME1 151205Z 18012KT 21/18 A2994 RMK A01 T02110184  RH  084%=      5-min Rain = 0
KME1 151206Z 19011G16KT 21/18 A2994 RMK A01 T02110184  RH  084%=      5-min Rain = 0
KME1 151207Z 19012KT 21/19 A2994 RMK A01 T02120185  RH  084%=      5-min Rain = 0
KME1 151208Z 19009KT 21/19 A2994 RMK A01 T02120185  RH  084%=      5-min Rain = 0
KME1 151209Z 17008KT 21/19 A2995 RMK A01 T02120185  RH  084%=      5-min Rain = 0
KME1 151210Z 19011KT 21/19 A2994 RMK A01 T02120185  RH  084%=      5-min Rain = 0
KME1 151211Z 18010G15KT 21/19 A2995 RMK A01 T02120185  RH  084%=      5-min Rain = 0
KME1 151212Z 19010G15KT 21/19 A2995 RMK A01 T02120185  RH  084%=      5-min Rain = 0
KME1 151213Z 19010KT 21/19 A2995 RMK A01 T02130185  RH  084%=      5-min Rain = 0
KME1 151214Z 19010G15KT 21/19 A2995 RMK A01 T02130186  RH  084%=      5-min Rain = 0
KME1 151215Z 19011KT 21/19 A2995 RMK A01 T02130186  RH  085%=      5-min Rain = 0
KME1 151216Z 19012G19KT 21/19 A2995 RMK A01 T02130186  RH  085%=      5-min Rain = 0
KME1 151217Z 19011KT 21/19 A2995 RMK A01 T02130186  RH  085%=      5-min Rain = 0
KME1 151218Z 20012G17KT 21/19 A2995 RMK A01 T02130186  RH  085%=      5-min Rain = 0
KME1 151219Z 19011KT 21/19 A2995 RMK A01 T02130187  RH  085%=      5-min Rain = 0
KME1 151220Z 19009G16KT 21/19 A2995 RMK A01 T02130187  RH  085%=      5-min Rain = 0
KME1 151221Z 20012G18KT 21/19 A2995 RMK A01 T02130187  RH  085%=      5-min Rain = 0
KME1 151222Z 19013G20KT 21/19 A2995 RMK A01 T02130188  RH  085%=      5-min Rain = 0
KME1 151223Z 19013KT 21/19 A2995 RMK A01 T02130188  RH  086%=      5-min Rain = 0
KME1 151224Z 18010G15KT 21/19 A2995 RMK A01 T02130188  RH  086%=      5-min Rain = 0
KME1 151225Z 19011KT 21/19 A2995 RMK A01 T02130188  RH  085%=      5-min Rain = 0
KME1 151226Z 18009KT 21/19 A2995 RMK A01 T02130188  RH  085%=      5-min Rain = 0
KME1 151227Z 19010G15KT 21/19 A2995 RMK A01 T02130188  RH  085%=      5-min Rain = 0
KME1 151228Z 19009KT 21/19 A2995 RMK A01 T02140188  RH  085%=      5-min Rain = 0
KME1 151229Z 18010G16KT 21/19 A2995 RMK A01 T02140188  RH  085%=      5-min Rain = 0
KME1 151230Z 19013G18KT 21/19 A2995 RMK A01 T02140188  RH  085%=      5-min Rain = 0
KME1 151231Z 20010KT 21/19 A2995 RMK A01 T02140189  RH  085%=      5-min Rain = 0
KME1 151232Z 19010G15KT 22/19 A2995 RMK A01 T02150189  RH  085%=      5-min Rain = 0
KME1 151233Z 18010KT 22/19 A2995 RMK A01 T02150189  RH  085%=      5-min Rain = 0
KME1 151234Z 18009KT 22/19 A2995 RMK A01 T02150189  RH  085%=      5-min Rain = 0
KME1 151235Z 18009G15KT 22/19 A2995 RMK A01 T02160190  RH  085%=      5-min Rain = 0
KME1 151236Z 18008KT 22/19 A2996 RMK A01 T02160190  RH  085%=      5-min Rain = 0
KME1 151237Z 19010G15KT 22/19 A2996 RMK A01 T02160189  RH  085%=      5-min Rain = 0
KME1 151238Z 18011KT 22/19 A2996 RMK A01 T02160189  RH  085%=      5-min Rain = 0
KME1 151239Z 17009KT 22/19 A2996 RMK A01 T02160189  RH  085%=      5-min Rain = 0
KME1 151240Z 18008KT 22/19 A2996 RMK A01 T02170189  RH  084%=      5-min Rain = 0
KME1 151241Z 19012G17KT 22/19 A2996 RMK A01 T02170190  RH  084%=      5-min Rain = 0
KME1 151242Z 19014KT 22/19 A2996 RMK A01 T02180189  RH  084%=      5-min Rain = 0
KME1 151243Z 19013KT 22/19 A2996 RMK A01 T02190189  RH  083%=      5-min Rain = 0
KME1 151244Z 19010KT 22/19 A2996 RMK A01 T02190190  RH  083%=      5-min Rain = 0
KME1 151245Z 19008KT 22/19 A2996 RMK A01 T02200190  RH  083%=      5-min Rain = 0
KME1 151246Z 20007KT 22/19 A2996 RMK A01 T02210190  RH  083%=      5-min Rain = 0
KME1 151247Z 19009KT 22/19 A2996 RMK A01 T02220190  RH  082%=      5-min Rain = 0
KME1 151248Z 19012KT 22/19 A2997 RMK A01 T02220189  RH  082%=      5-min Rain = 0
KME1 151249Z 18013KT 22/19 A2997 RMK A01 T02220190  RH  082%=      5-min Rain = 0
KME1 151250Z 19008KT 22/19 A2997 RMK A01 T02220189  RH  082%=      5-min Rain = 0
KME1 151251Z 20006KT 22/19 A2997 RMK A01 T02230190  RH  082%=      5-min Rain = 0
KME1 151252Z 20006KT 22/19 A2997 RMK A01 T02230190  RH  081%=      5-min Rain = 0
KME1 151253Z 20010KT 22/19 A2997 RMK A01 T02240190  RH  081%=      5-min Rain = 0
KME1 151254Z 19009KT 22/19 A2997 RMK A01 T02240190  RH  081%=      5-min Rain = 0
KME1 151255Z 20010G15KT 22/19 A2997 RMK A01 T02240190  RH  081%=      5-min Rain = 0
KME1 151256Z 20011KT 22/19 A2997 RMK A01 T02240189  RH  081%=      5-min Rain = 0
KME1 151257Z 19008KT 22/19 A2997 RMK A01 T02240189  RH  081%=      5-min Rain = 0
KME1 151258Z 19009KT 22/19 A2997 RMK A01 T02240189  RH  081%=      5-min Rain = 0
KME1 151259Z 20008KT 23/19 A2997 RMK A01 T02250189  RH  080%=      5-min Rain = 0
KME1 151300Z 20011G17KT 22/19 A2997 RMK A01 T02240189  RH  080%=      5-min Rain = 0
KME1 151301Z 20014KT 23/19 A2997 RMK A01 T02250189  RH  080%=      5-min Rain = 0
KME1 151302Z 20008KT 22/19 A2997 RMK A01 T02240189  RH  080%=      5-min Rain = 0
KME1 151303Z 21009KT 22/19 A2997 RMK A01 T02240189  RH  081%=      5-min Rain = 0
KME1 151304Z 21008G13KT 23/19 A2997 RMK A01 T02250189  RH  080%=      5-min Rain = 0
KME1 151305Z 20007KT 23/19 A2997 RMK A01 T02260190  RH  080%=      5-min Rain = 0
KME1 151306Z 21009G14KT 23/19 A2997 RMK A01 T02260190  RH  080%=      5-min Rain = 0
KME1 151307Z 19008G13KT 23/19 A2997 RMK A01 T02260190  RH  080%=      5-min Rain = 0
KME1 151308Z 18009KT 23/19 A2997 RMK A01 T02260190  RH  080%=      5-min Rain = 0
KME1 151309Z 19008KT 23/19 A2997 RMK A01 T02250190  RH  081%=      5-min Rain = 0
KME1 151310Z 19008KT 23/19 A2997 RMK A01 T02250190  RH  081%=      5-min Rain = 0
KME1 151311Z 18007KT 22/19 A2997 RMK A01 T02240190  RH  081%=      5-min Rain = 0
KME1 151312Z 18011KT 22/19 A2997 RMK A01 T02240189  RH  081%=      5-min Rain = 0
KME1 151313Z 18011KT 23/19 A2997 RMK A01 T02250189  RH  080%=      5-min Rain = 0
KME1 151314Z 18010KT 23/19 A2997 RMK A01 T02260190  RH  080%=      5-min Rain = 0
KME1 151315Z 17008G13KT 23/19 A2998 RMK A01 T02280191  RH  079%=      5-min Rain = 0
KME1 151316Z 20010KT 23/19 A2998 RMK A01 T02290191  RH  079%=      5-min Rain = 0
KME1 151317Z 18010KT 23/19 A2998 RMK A01 T02300190  RH  078%=      5-min Rain = 0
KME1 151318Z 18010KT 23/19 A2998 RMK A01 T02300190  RH  078%=      5-min Rain = 0
KME1 151319Z 18011KT 23/19 A2998 RMK A01 T02300190  RH  078%=      5-min Rain = 0
KME1 151320Z 18012KT 23/19 A2998 RMK A01 T02300190  RH  078%=      5-min Rain = 0
KME1 151321Z 19011KT 23/19 A2998 RMK A01 T02300190  RH  078%=      5-min Rain = 0
KME1 151322Z 18012KT 23/19 A2998 RMK A01 T02300190  RH  078%=      5-min Rain = 0
KME1 151323Z 18013KT 23/19 A2998 RMK A01 T02290190  RH  078%=      5-min Rain = 0
KME1 151324Z 19010KT 23/19 A2998 RMK A01 T02280190  RH  079%=      5-min Rain = 0
KME1 151325Z 19012KT 23/19 A2998 RMK A01 T02280190  RH  079%=      5-min Rain = 0
KME1 151326Z 19012G17KT 23/19 A2998 RMK A01 T02280190  RH  079%=      5-min Rain = 0
KME1 151327Z 18015KT 23/19 A2998 RMK A01 T02280189  RH  079%=      5-min Rain = 0
KME1 151328Z 19012KT 23/19 A2998 RMK A01 T02280188  RH  078%=      5-min Rain = 0
KME1 151329Z 18012G18KT 23/19 A2998 RMK A01 T02280189  RH  079%=      5-min Rain = 0
KME1 151330Z 18016KT 23/19 A2998 RMK A01 T02290189  RH  078%=      5-min Rain = 0
KME1 151331Z 19013KT 23/19 A2998 RMK A01 T02290189  RH  078%=      5-min Rain = 0
KME1 151332Z 19013KT 23/19 A2998 RMK A01 T02290188  RH  078%=      5-min Rain = 0
KME1 151333Z 19012KT 23/19 A2998 RMK A01 T02300189  RH  078%=      5-min Rain = 0
KME1 151334Z 19012KT 23/19 A2998 RMK A01 T02300189  RH  077%=      5-min Rain = 0
KME1 151335Z 19010KT 23/19 A2998 RMK A01 T02310189  RH  077%=      5-min Rain = 0
KME1 151336Z 20010KT 23/19 A2998 RMK A01 T02310189  RH  077%=      5-min Rain = 0
KME1 151337Z 19009KT 23/19 A2998 RMK A01 T02310190  RH  078%=      5-min Rain = 0
KME1 151338Z 19009KT 23/19 A2998 RMK A01 T02320189  RH  077%=      5-min Rain = 0
KME1 151339Z 19009KT 23/19 A2998 RMK A01 T02320189  RH  077%=      5-min Rain = 0
KME1 151340Z 21008G13KT 23/19 A2998 RMK A01 T02320189  RH  077%=      5-min Rain = 0
KME1 151341Z 19009KT 23/19 A2998 RMK A01 T02330190  RH  077%=      5-min Rain = 0
KME1 151342Z 19012KT 23/19 A2998 RMK A01 T02340190  RH  076%=      5-min Rain = 0
KME1 151343Z 20012KT 23/19 A2998 RMK A01 T02340190  RH  076%=      5-min Rain = 0
KME1 151344Z 19013KT 23/19 A2998 RMK A01 T02330189  RH  076%=      5-min Rain = 0
KME1 151345Z 19011KT 23/19 A2998 RMK A01 T02330189  RH  076%=      5-min Rain = 0
KME1 151346Z 20010KT 23/19 A2998 RMK A01 T02340189  RH  076%=      5-min Rain = 0
KME1 151347Z 19012G17KT 23/19 A2998 RMK A01 T02340190  RH  076%=      5-min Rain = 0
KME1 151348Z 20012KT 23/19 A2998 RMK A01 T02340189  RH  076%=      5-min Rain = 0
KME1 151349Z 20011KT 23/19 A2998 RMK A01 T02340189  RH  075%=      5-min Rain = 0
KME1 151350Z 20011G16KT 24/19 A2998 RMK A01 T02350189  RH  075%=      5-min Rain = 0
KME1 151351Z 20011G16KT 24/19 A2998 RMK A01 T02370190  RH  075%=      5-min Rain = 0
KME1 151352Z 20010KT 24/19 A2998 RMK A01 T02380189  RH  074%=      5-min Rain = 0
KME1 151353Z 20010KT 24/19 A2998 RMK A01 T02380189  RH  074%=      5-min Rain = 0
KME1 151354Z 21010KT 24/19 A2998 RMK A01 T02380190  RH  074%=      5-min Rain = 0
KME1 151355Z 20011KT 24/19 A2998 RMK A01 T02390190  RH  074%=      5-min Rain = 0
KME1 151356Z 20010KT 24/19 A2998 RMK A01 T02400189  RH  073%=      5-min Rain = 0
KME1 151357Z 22012G18KT 24/19 A2998 RMK A01 T02410189  RH  073%=      5-min Rain = 0
KME1 151358Z 21011KT 24/19 A2998 RMK A01 T02410189  RH  072%=      5-min Rain = 0
KME1 151359Z 19008KT 24/19 A2998 RMK A01 T02410189  RH  073%=      5-min Rain = 0
KME1 151400Z 21007KT 24/19 A2998 RMK A01 T02420190  RH  073%=      5-min Rain = 0
KME1 151401Z 21009KT 24/19 A2998 RMK A01 T02440190  RH  072%=      5-min Rain = 0
KME1 151402Z 21009KT 25/19 A2998 RMK A01 T02450189  RH  071%=      5-min Rain = 0
KME1 151403Z 19006KT 25/19 A2998 RMK A01 T02460190  RH  071%=      5-min Rain = 0
KME1 151404Z 18010G16KT 25/19 A2998 RMK A01 T02460190  RH  071%=      5-min Rain = 0
KME1 151405Z 19008KT 25/19 A2998 RMK A01 T02450189  RH  071%=      5-min Rain = 0
KME1 151406Z 20010KT 25/19 A2998 RMK A01 T02450189  RH  071%=      5-min Rain = 0
KME1 151407Z 20010KT 25/19 A2998 RMK A01 T02460189  RH  071%=      5-min Rain = 0
KME1 151408Z 20009KT 25/19 A2998 RMK A01 T02460189  RH  071%=      5-min Rain = 0
KME1 151409Z 19012KT 25/19 A2998 RMK A01 T02460189  RH  071%=      5-min Rain = 0
KME1 151410Z 18011KT 25/19 A2998 RMK A01 T02470189  RH  070%=      5-min Rain = 0
KME1 151411Z 18012G17KT 25/19 A2998 RMK A01 T02460190  RH  071%=      5-min Rain = 0
KME1 151412Z 19014KT 25/19 A2998 RMK A01 T02460188  RH  070%=      5-min Rain = 0
KME1 151413Z 18014KT 25/19 A2998 RMK A01 T02460188  RH  070%=      5-min Rain = 0
KME1 151414Z 19011KT 25/19 A2998 RMK A01 T02450187  RH  070%=      5-min Rain = 0
KME1 151415Z 19010KT 25/19 A2998 RMK A01 T02460188  RH  070%=      5-min Rain = 0
KME1 151416Z 19010KT 25/19 A2998 RMK A01 T02480187  RH  069%=      5-min Rain = 0
KME1 151417Z 21011KT 25/19 A2998 RMK A01 T02490187  RH  069%=      5-min Rain = 0
KME1 151418Z 20012KT 25/19 A2998 RMK A01 T02490187  RH  069%=      5-min Rain = 0
KME1 151419Z 21011KT 25/19 A2998 RMK A01 T02490187  RH  068%=      5-min Rain = 0
KME1 151420Z 20009KT 25/19 A2998 RMK A01 T02510187  RH  068%=      5-min Rain = 0
KME1 151421Z 20013G18KT 25/19 A2998 RMK A01 T02520188  RH  067%=      5-min Rain = 0
KME1 151422Z 20012KT 25/19 A2998 RMK A01 T02530187  RH  067%=      5-min Rain = 0
KME1 151423Z 21011KT 25/19 A2998 RMK A01 T02520187  RH  068%=      5-min Rain = 0
KME1 151424Z 20012KT 25/19 A2998 RMK A01 T02520187  RH  067%=      5-min Rain = 0
KME1 151425Z 20008KT 25/19 A2998 RMK A01 T02510188  RH  068%=      5-min Rain = 0
KME1 151426Z 21014KT 25/19 A2998 RMK A01 T02520187  RH  067%=      5-min Rain = 0
KME1 151427Z 21012KT 25/19 A2998 RMK A01 T02520187  RH  067%=      5-min Rain = 0
KME1 151428Z 19010G15KT 25/19 A2998 RMK A01 T02530187  RH  067%=      5-min Rain = 0
KME1 151429Z 20008KT 25/19 A2998 RMK A01 T02530187  RH  067%=      5-min Rain = 0
KME1 151430Z 21010G15KT 26/19 A2998 RMK A01 T02550188  RH  066%=      5-min Rain = 0
KME1 151431Z 19010KT 26/19 A2998 RMK A01 T02560187  RH  065%=      5-min Rain = 0
KME1 151432Z 20011KT 26/19 A2998 RMK A01 T02550187  RH  066%=      5-min Rain = 0
KME1 151433Z 21011KT 26/19 A2998 RMK A01 T02550187  RH  066%=      5-min Rain = 0
KME1 151434Z 21009KT 26/19 A2998 RMK A01 T02550188  RH  066%=      5-min Rain = 0
KME1 151435Z 21013KT 26/19 A2998 RMK A01 T02560188  RH  066%=      5-min Rain = 0
KME1 151436Z 19009KT 26/19 A2998 RMK A01 T02560188  RH  066%=      5-min Rain = 0
KME1 151437Z 19013KT 26/19 A2998 RMK A01 T02560188  RH  066%=      5-min Rain = 0
KME1 151438Z 19011G17KT 26/19 A2998 RMK A01 T02550187  RH  066%=      5-min Rain = 0
KME1 151439Z 17012KT 26/19 A2998 RMK A01 T02550187  RH  066%=      5-min Rain = 0
KME1 151440Z 18011KT 26/19 A2998 RMK A01 T02560187  RH  066%=      5-min Rain = 0
KME1 151441Z 18011G16KT 26/19 A2998 RMK A01 T02560187  RH  066%=      5-min Rain = 0
KME1 151442Z 18011KT 26/19 A2997 RMK A01 T02570188  RH  066%=      5-min Rain = 0
KME1 151443Z 20012KT 26/19 A2997 RMK A01 T02570188  RH  066%=      5-min Rain = 0
KME1 151444Z 18013KT 26/19 A2997 RMK A01 T02550188  RH  066%=      5-min Rain = 0
KME1 151445Z 18012KT 26/19 A2997 RMK A01 T02550187  RH  066%=      5-min Rain = 0
KME1 151446Z 18011KT 26/19 A2997 RMK A01 T02560188  RH  066%=      5-min Rain = 0
KME1 151447Z 18011KT 26/19 A2997 RMK A01 T02570188  RH  066%=      5-min Rain = 0
KME1 151448Z 19013KT 26/19 A2997 RMK A01 T02590188  RH  065%=      5-min Rain = 0
KME1 151449Z 18012KT 26/19 A2997 RMK A01 T02600188  RH  065%=      5-min Rain = 0
KME1 151450Z 19011KT 26/19 A2998 RMK A01 T02600188  RH  065%=      5-min Rain = 0
KME1 151451Z 21010G15KT 26/19 A2998 RMK A01 T02600188  RH  064%=      5-min Rain = 0
KME1 151452Z 20011KT 26/19 A2998 RMK A01 T02600188  RH  064%=      5-min Rain = 0
KME1 151453Z 20013KT 26/19 A2998 RMK A01 T02600187  RH  064%=      5-min Rain = 0
KME1 151454Z 20011KT 26/19 A2998 RMK A01 T02590187  RH  065%=      5-min Rain = 0
KME1 151455Z 19010G17KT 26/19 A2998 RMK A01 T02580187  RH  065%=      5-min Rain = 0
KME1 151456Z 19012KT 26/19 A2998 RMK A01 T02580187  RH  065%=      5-min Rain = 0
KME1 151457Z 18012G19KT 26/19 A2998 RMK A01 T02580187  RH  065%=      5-min Rain = 0
KME1 151458Z 19013KT 26/19 A2998 RMK A01 T02590187  RH  065%=      5-min Rain = 0
KME1 151459Z 19012KT 26/19 A2998 RMK A01 T02600188  RH  064%=      5-min Rain = 0
KME1 151500Z 20008G14KT 26/19 A2998 RMK A01 T02620189  RH  064%=      5-min Rain = 0
KME1 151501Z 21010G15KT 26/19 A2998 RMK A01 T02640189  RH  063%=      5-min Rain = 0
KME1 151502Z 21014KT 27/19 A2998 RMK A01 T02650188  RH  063%=      5-min Rain = 0
KME1 151503Z 20012KT 26/19 A2998 RMK A01 T02640188  RH  063%=      5-min Rain = 0
KME1 151504Z 20009KT 26/19 A2998 RMK A01 T02630187  RH  063%=      5-min Rain = 0
KME1 151505Z 21008G13KT 26/19 A2998 RMK A01 T02630187  RH  063%=      5-min Rain = 0
KME1 151506Z 20012KT 26/19 A2998 RMK A01 T02640187  RH  062%=      5-min Rain = 0
KME1 151507Z 20012KT 27/19 A2998 RMK A01 T02650187  RH  062%=      5-min Rain = 0
KME1 151508Z 19009KT 26/19 A2998 RMK A01 T02630187  RH  063%=      5-min Rain = 0
KME1 151509Z 18008KT 26/19 A2998 RMK A01 T02630189  RH  064%=      5-min Rain = 0
KME1 151510Z 18010KT 27/19 A2998 RMK A01 T02650188  RH  063%=      5-min Rain = 0
KME1 151511Z 18011KT 27/19 A2998 RMK A01 T02650189  RH  063%=      5-min Rain = 0
KME1 151512Z 19012KT 27/19 A2997 RMK A01 T02650188  RH  063%=      5-min Rain = 0
KME1 151513Z 17010KT 27/19 A2997 RMK A01 T02650188  RH  063%=      5-min Rain = 0
KME1 151514Z 18011KT 27/19 A2998 RMK A01 T02660189  RH  062%=      5-min Rain = 0
KME1 151515Z 20010KT 27/19 A2998 RMK A01 T02680188  RH  062%=      5-min Rain = 0
KME1 151516Z 18011KT 27/19 A2998 RMK A01 T02670188  RH  062%=      5-min Rain = 0
KME1 151517Z 20009G14KT 27/19 A2998 RMK A01 T02670188  RH  062%=      5-min Rain = 0
KME1 151518Z 19012KT 27/19 A2998 RMK A01 T02670187  RH  062%=      5-min Rain = 0
KME1 151519Z 19010KT 27/19 A2998 RMK A01 T02670187  RH  062%=      5-min Rain = 0
KME1 151520Z 21010KT 27/19 A2998 RMK A01 T02680188  RH  062%=      5-min Rain = 0
KME1 151521Z 20011KT 27/19 A2998 RMK A01 T02680188  RH  061%=      5-min Rain = 0
KME1 151522Z 19010G15KT 27/19 A2998 RMK A01 T02690188  RH  061%=      5-min Rain = 0
KME1 151523Z 20011G16KT 27/19 A2998 RMK A01 T02690189  RH  062%=      5-min Rain = 0
KME1 151524Z 18010KT 27/19 A2998 RMK A01 T02710189  RH  061%=      5-min Rain = 0
KME1 151525Z 22009KT 27/19 A2998 RMK A01 T02720189  RH  061%=      5-min Rain = 0
KME1 151526Z 22009KT 27/19 A2998 RMK A01 T02730188  RH  060%=      5-min Rain = 0
KME1 151527Z 20008KT 28/19 A2998 RMK A01 T02750189  RH  060%=      5-min Rain = 0
KME1 151528Z 20011KT 28/19 A2998 RMK A01 T02770188  RH  058%=      5-min Rain = 0
KME1 151529Z 20010KT 28/19 A2998 RMK A01 T02760188  RH  059%=      5-min Rain = 0
KME1 151530Z 19008KT 28/19 A2998 RMK A01 T02760189  RH  059%=      5-min Rain = 0
KME1 151531Z 18009KT 28/19 A2998 RMK A01 T02760189  RH  059%=      5-min Rain = 0
KME1 151532Z 20010G15KT 28/19 A2998 RMK A01 T02770189  RH  059%=      5-min Rain = 0
KME1 151533Z 21011KT 28/19 A2998 RMK A01 T02750189  RH  059%=      5-min Rain = 0
KME1 151534Z 21011KT 27/19 A2998 RMK A01 T02730189  RH  060%=      5-min Rain = 0
KME1 151535Z 21010KT 27/19 A2998 RMK A01 T02730188  RH  060%=      5-min Rain = 0
KME1 151536Z 22007KT 27/19 A2998 RMK A01 T02730188  RH  060%=      5-min Rain = 0
KME1 151537Z 20011KT 28/19 A2998 RMK A01 T02750189  RH  059%=      5-min Rain = 0
KME1 151538Z 21012KT 28/19 A2998 RMK A01 T02780187  RH  058%=      5-min Rain = 0
KME1 151539Z 21012KT 28/19 A2998 RMK A01 T02780187  RH  058%=      5-min Rain = 0
KME1 151540Z 20013KT 28/19 A2998 RMK A01 T02770187  RH  058%=      5-min Rain = 0
KME1 151541Z 18010KT 28/19 A2998 RMK A01 T02760187  RH  059%=      5-min Rain = 0
KME1 151542Z 19011KT 28/19 A2998 RMK A01 T02760187  RH  059%=      5-min Rain = 0
KME1 151543Z 19010KT 27/19 A2998 RMK A01 T02740188  RH  059%=      5-min Rain = 0
KME1 151544Z 20010KT 27/19 A2998 RMK A01 T02740188  RH  059%=      5-min Rain = 0
KME1 151545Z 22013KT 28/19 A2998 RMK A01 T02770187  RH  058%=      5-min Rain = 0
KME1 151546Z 23009KT 28/19 A2998 RMK A01 T02770186  RH  058%=      5-min Rain = 0
KME1 151547Z 20008KT 28/19 A2998 RMK A01 T02780186  RH  057%=      5-min Rain = 0
KME1 151548Z 21010KT 28/19 A2998 RMK A01 T02790187  RH  057%=      5-min Rain = 0
KME1 151549Z 20009KT 28/19 A2998 RMK A01 T02800187  RH  057%=      5-min Rain = 0
KME1 151550Z 21009KT 28/19 A2998 RMK A01 T02810187  RH  057%=      5-min Rain = 0
KME1 151551Z 22010KT 28/19 A2998 RMK A01 T02810187  RH  057%=      5-min Rain = 0
KME1 151552Z 21013KT 28/19 A2998 RMK A01 T02840185  RH  055%=      5-min Rain = 0
KME1 151553Z 21010KT 28/19 A2998 RMK A01 T02840185  RH  055%=      5-min Rain = 0
KME1 151554Z 20009KT 28/19 A2998 RMK A01 T02840186  RH  055%=      5-min Rain = 0
KME1 151555Z 19010KT 28/19 A2998 RMK A01 T02840187  RH  056%=      5-min Rain = 0
KME1 151556Z 18010KT 28/19 A2998 RMK A01 T02840188  RH  056%=      5-min Rain = 0
KME1 151557Z 18008KT 29/19 A2998 RMK A01 T02850188  RH  056%=      5-min Rain = 0
KME1 151558Z 20011KT 29/19 A2998 RMK A01 T02870187  RH  055%=      5-min Rain = 0
KME1 151559Z 20013KT 29/19 A2998 RMK A01 T02880186  RH  054%=      5-min Rain = 0
KME1 151600Z 20011G16KT 29/19 A2998 RMK A01 T02870186  RH  054%=      5-min Rain = 0
KME1 151601Z 21010KT 29/19 A2998 RMK A01 T02860186  RH  055%=      5-min Rain = 0
KME1 151602Z 20011KT 29/19 A2998 RMK A01 T02850185  RH  055%=      5-min Rain = 0
KME1 151603Z 20012G18KT 28/19 A2998 RMK A01 T02830185  RH  055%=      5-min Rain = 0
KME1 151604Z 18012KT 28/19 A2998 RMK A01 T02830185  RH  055%=      5-min Rain = 0
KME1 151605Z 19011KT 28/19 A2998 RMK A01 T02840185  RH  055%=      5-min Rain = 0
KME1 151606Z 18012KT 29/19 A2997 RMK A01 T02870186  RH  054%=      5-min Rain = 0
KME1 151607Z 19011KT 29/18 A2998 RMK A01 T02870184  RH  054%=      5-min Rain = 0
KME1 151608Z 22013KT 29/18 A2998 RMK A01 T02870184  RH  054%=      5-min Rain = 0
KME1 151609Z 20009KT 29/18 A2998 RMK A01 T02860183  RH  054%=      5-min Rain = 0
KME1 151610Z 21006KT 29/18 A2998 RMK A01 T02860183  RH  054%=      5-min Rain = 0
KME1 151611Z 19008G13KT 29/19 A2998 RMK A01 T02890185  RH  053%=      5-min Rain = 0
KME1 151612Z 18011KT 29/19 A2998 RMK A01 T02920187  RH  053%=      5-min Rain = 0
KME1 151613Z 19008KT 29/19 A2998 RMK A01 T02930187  RH  053%=      5-min Rain = 0
KME1 151614Z 21009KT 29/19 A2998 RMK A01 T02930188  RH  053%=      5-min Rain = 0
KME1 151615Z 18011G19KT 29/19 A2998 RMK A01 T02940187  RH  053%=      5-min Rain = 0
KME1 151616Z 20014KT 30/19 A2997 RMK A01 T02950186  RH  052%=      5-min Rain = 0
KME1 151617Z 20010KT 30/19 A2998 RMK A01 T02950185  RH  051%=      5-min Rain = 0
KME1 151618Z 21009KT 30/18 A2998 RMK A01 T02970184  RH  051%=      5-min Rain = 0
KME1 151619Z 19008KT 30/19 A2997 RMK A01 T02960186  RH  051%=      5-min Rain = 0
KME1 151620Z 19009KT 30/19 A2997 RMK A01 T02960186  RH  052%=      5-min Rain = 0
KME1 151621Z 19009G14KT 30/19 A2997 RMK A01 T02950186  RH  052%=      5-min Rain = 0
KME1 151622Z 20011KT 30/19 A2997 RMK A01 T02960186  RH  052%=      5-min Rain = 0
KME1 151623Z 20012KT 30/19 A2997 RMK A01 T02960185  RH  051%=      5-min Rain = 0
KME1 151624Z 19012KT 30/19 A2997 RMK A01 T02960185  RH  051%=      5-min Rain = 0
KME1 151625Z 19010KT 30/18 A2998 RMK A01 T02960184  RH  051%=      5-min Rain = 0
KME1 151626Z 19010KT 30/18 A2997 RMK A01 T02950184  RH  051%=      5-min Rain = 0
KME1 151627Z 19010KT 29/18 A2997 RMK A01 T02940183  RH  051%=      5-min Rain = 0
KME1 151628Z 20008KT 30/18 A2998 RMK A01 T02950183  RH  051%=      5-min Rain = 0
KME1 151629Z 21013KT 30/18 A2998 RMK A01 T02990183  RH  050%=      5-min Rain = 0
KME1 151630Z 20010KT 30/18 A2998 RMK A01 T03000182  RH  049%=      5-min Rain = 0
KME1 151631Z 20010KT 30/18 A2998 RMK A01 T02980182  RH  050%=      5-min Rain = 0
KME1 151632Z 20009KT 30/18 A2998 RMK A01 T02970182  RH  050%=      5-min Rain = 0
KME1 151633Z 20008KT 30/18 A2997 RMK A01 T02950181  RH  050%=      5-min Rain = 0
KME1 151634Z 20008KT 30/18 A2997 RMK A01 T02970184  RH  051%=      5-min Rain = 0
KME1 151635Z 19010KT 30/18 A2998 RMK A01 T03010184  RH  050%=      5-min Rain = 0
KME1 151636Z 21010KT 30/18 A2998 RMK A01 T03020184  RH  049%=      5-min Rain = 0
KME1 151637Z 20008KT 30/18 A2998 RMK A01 T03010184  RH  049%=      5-min Rain = 0
KME1 151638Z 22008KT 30/18 A2998 RMK A01 T03000181  RH  049%=      5-min Rain = 0
KME1 151639Z 22006KT 30/18 A2998 RMK A01 T02990178  RH  048%=      5-min Rain = 0
KME1 151640Z 23005KT 30/18 A2998 RMK A01 T03000177  RH  048%=      5-min Rain = 0
KME1 151641Z 17005KT 30/18 A2998 RMK A01 T03030179  RH  048%=      5-min Rain = 0
KME1 151642Z 20006KT 31/18 A2998 RMK A01 T03050183  RH  048%=      5-min Rain = 0
KME1 151643Z 23010KT 31/18 A2998 RMK A01 T03070184  RH  048%=      5-min Rain = 0
KME1 151644Z 21012KT 31/18 A2998 RMK A01 T03080184  RH  048%=      5-min Rain = 0
KME1 151645Z 19008G13KT 31/18 A2998 RMK A01 T03080184  RH  048%=      5-min Rain = 0
KME1 151646Z 19010G16KT 31/18 A2998 RMK A01 T03070183  RH  048%=      5-min Rain = 0
KME1 151647Z 20013KT 31/18 A2998 RMK A01 T03080181  RH  047%=      5-min Rain = 0
KME1 151648Z 21008G14KT 31/18 A2998 RMK A01 T03050179  RH  047%=      5-min Rain = 0
KME1 151649Z 19010KT 30/18 A2998 RMK A01 T03030180  RH  048%=      5-min Rain = 0
KME1 151650Z 19009KT 30/18 A2997 RMK A01 T03040181  RH  048%=      5-min Rain = 0
KME1 151651Z 18007KT 30/18 A2997 RMK A01 T03030180  RH  048%=      5-min Rain = 0
KME1 151652Z 19007KT 30/18 A2997 RMK A01 T03010181  RH  048%=      5-min Rain = 0
KME1 151653Z 17008KT 31/18 A2997 RMK A01 T03050183  RH  048%=      5-min Rain = 0
KME1 151654Z 18009KT 31/18 A2997 RMK A01 T03110184  RH  047%=      5-min Rain = 0
KME1 151655Z 20008G13KT 31/18 A2997 RMK A01 T03130184  RH  046%=      5-min Rain = 0
KME1 151656Z 19005KT 31/18 A2997 RMK A01 T03130182  RH  045%=      5-min Rain = 0
KME1 151657Z 22008KT 31/18 A2998 RMK A01 T03120183  RH  046%=      5-min Rain = 0
KME1 151658Z 21009KT 31/18 A2997 RMK A01 T03140182  RH  045%=      5-min Rain = 0
KME1 151659Z 20006G12KT 31/18 A2998 RMK A01 T03120182  RH  046%=      5-min Rain = 0
KME1 151700Z 18006G11KT 31/18 A2998 RMK A01 T03110183  RH  046%=      5-min Rain = 0
KME1 151701Z 17009G14KT 31/18 A2998 RMK A01 T03130183  RH  046%=      5-min Rain = 0
KME1 151702Z 18007KT 31/18 A2997 RMK A01 T03140182  RH  046%=      5-min Rain = 0
KME1 151703Z 19006KT 31/18 A2997 RMK A01 T03140183  RH  046%=      5-min Rain = 0
KME1 151704Z 20009KT 32/18 A2997 RMK A01 T03150182  RH  045%=      5-min Rain = 0
KME1 151705Z 20008KT 31/18 A2997 RMK A01 T03140183  RH  046%=      5-min Rain = 0
KME1 151706Z 22009KT 31/18 A2997 RMK A01 T03130181  RH  045%=      5-min Rain = 0
KME1 151707Z 22009KT 31/18 A2997 RMK A01 T03130180  RH  045%=      5-min Rain = 0
KME1 151708Z 19006KT 31/18 A2997 RMK A01 T03130181  RH  045%=      5-min Rain = 0
KME1 151709Z 17007KT 31/18 A2997 RMK A01 T03140180  RH  045%=      5-min Rain = 0
KME1 151710Z 17007KT 31/18 A2997 RMK A01 T03130180  RH  045%=      5-min Rain = 0
KME1 151711Z 19007G12KT 31/18 A2997 RMK A01 T03130179  RH  045%=      5-min Rain = 0
KME1 151712Z 20010KT 31/18 A2997 RMK A01 T03140179  RH  045%=      5-min Rain = 0
KME1 151713Z 22009KT 32/18 A2997 RMK A01 T03160177  RH  044%=      5-min Rain = 0
KME1 151714Z 19007KT 32/18 A2997 RMK A01 T03160178  RH  044%=      5-min Rain = 0
KME1 151715Z 17007KT 32/18 A2997 RMK A01 T03160181  RH  045%=      5-min Rain = 0
KME1 151716Z 17010KT 32/18 A2997 RMK A01 T03160181  RH  045%=      5-min Rain = 0
KME1 151717Z 17009KT 32/18 A2997 RMK A01 T03160180  RH  044%=      5-min Rain = 0
KME1 151718Z 19007KT 32/18 A2997 RMK A01 T03150180  RH  045%=      5-min Rain = 0
KME1 151719Z 20006KT 32/18 A2997 RMK A01 T03160177  RH  043%=      5-min Rain = 0
KME1 151720Z 17006KT 32/18 A2997 RMK A01 T03170179  RH  044%=      5-min Rain = 0
KME1 151721Z 17005KT 32/18 A2997 RMK A01 T03180179  RH  044%=      5-min Rain = 0
KME1 151722Z 15006KT 32/18 A2997 RMK A01 T03170179  RH  044%=      5-min Rain = 0
KME1 151723Z 15007KT 32/18 A2997 RMK A01 T03190180  RH  044%=      5-min Rain = 0
KME1 151724Z 15007KT 32/18 A2997 RMK A01 T03210181  RH  043%=      5-min Rain = 0
KME1 151725Z 15007KT 32/18 A2997 RMK A01 T03240182  RH  043%=      5-min Rain = 0
KME1 151726Z 15007KT 33/18 A2997 RMK A01 T03260182  RH  042%=      5-min Rain = 0
KME1 151727Z 17009KT 33/18 A2997 RMK A01 T03270180  RH  042%=      5-min Rain = 0
KME1 151728Z 16007KT 33/18 A2997 RMK A01 T03260179  RH  042%=      5-min Rain = 0
KME1 151729Z 16004KT 32/18 A2997 RMK A01 T03240179  RH  042%=      5-min Rain = 0
KME1 151730Z 15006KT 32/18 A2997 RMK A01 T03230179  RH  042%=      5-min Rain = 0
KME1 151731Z 17010KT 32/18 A2997 RMK A01 T03230179  RH  042%=      5-min Rain = 0
KME1 151732Z 18011KT 32/18 A2997 RMK A01 T03230178  RH  042%=      5-min Rain = 0
KME1 151733Z 18007KT 32/18 A2997 RMK A01 T03230177  RH  042%=      5-min Rain = 0
KME1 151734Z 17007KT 32/18 A2997 RMK A01 T03220177  RH  042%=      5-min Rain = 0
KME1 151735Z 16008KT 32/18 A2997 RMK A01 T03210176  RH  042%=      5-min Rain = 0
KME1 151736Z 19005KT 32/18 A2997 RMK A01 T03200177  RH  042%=      5-min Rain = 0
KME1 151737Z 18005KT 32/18 A2997 RMK A01 T03240177  RH  042%=      5-min Rain = 0
KME1 151738Z 17006KT 33/18 A2997 RMK A01 T03270177  RH  041%=      5-min Rain = 0
KME1 151739Z 15009KT 33/18 A2997 RMK A01 T03270178  RH  041%=      5-min Rain = 0
KME1 151740Z 14008KT 33/18 A2997 RMK A01 T03280176  RH  040%=      5-min Rain = 0
KME1 151741Z 15006KT 33/18 A2997 RMK A01 T03270175  RH  040%=      5-min Rain = 0
KME1 151742Z 14008KT 33/17 A2997 RMK A01 T03250174  RH  041%=      5-min Rain = 0
KME1 151743Z 19008KT 33/18 A2997 RMK A01 T03260177  RH  041%=      5-min Rain = 0
KME1 151744Z 22008KT 33/17 A2997 RMK A01 T03280174  RH  040%=      5-min Rain = 0
KME1 151745Z 20005KT 32/17 A2997 RMK A01 T03240174  RH  041%=      5-min Rain = 0
KME1 151746Z 18006KT 32/17 A2997 RMK A01 T03230174  RH  041%=      5-min Rain = 0
KME1 151747Z 20004KT 32/17 A2997 RMK A01 T03230172  RH  041%=      5-min Rain = 0
KME1 151748Z 19003KT 32/17 A2997 RMK A01 T03230171  RH  040%=      5-min Rain = 0
KME1 151749Z 15006KT 32/17 A2997 RMK A01 T03230172  RH  041%=      5-min Rain = 0
KME1 151750Z 14005KT 32/17 A2997 RMK A01 T03240171  RH  040%=      5-min Rain = 0
KME1 151751Z 16004KT 32/17 A2997 RMK A01 T03220171  RH  041%=      5-min Rain = 0
KME1 151752Z 15008KT 32/17 A2997 RMK A01 T03240173  RH  041%=      5-min Rain = 0
KME1 151753Z 18011KT 33/17 A2997 RMK A01 T03290173  RH  039%=      5-min Rain = 0
KME1 151754Z 19007KT 33/17 A2997 RMK A01 T03300174  RH  040%=      5-min Rain = 0
KME1 151755Z 17006KT 33/17 A2997 RMK A01 T03310174  RH  039%=      5-min Rain = 0
KME1 151756Z 19005KT 33/17 A2997 RMK A01 T03310174  RH  039%=      5-min Rain = 0
KME1 151757Z 20005KT 33/17 A2997 RMK A01 T03310173  RH  039%=      5-min Rain = 0
KME1 151758Z 15006G11KT 33/17 A2997 RMK A01 T03310174  RH  039%=      5-min Rain = 0
KME1 151759Z 16009KT 33/17 A2997 RMK A01 T03310172  RH  039%=      5-min Rain = 0
KME1 151800Z 16005KT 33/17 A2997 RMK A01 T03300171  RH  039%=      5-min Rain = 0
KME1 151801Z 14008KT 33/17 A2997 RMK A01 T03300173  RH  039%=      5-min Rain = 0
KME1 151802Z 13007KT 33/17 A2997 RMK A01 T03300172  RH  039%=      5-min Rain = 0
KME1 151803Z 10004KT 33/17 A2997 RMK A01 T03300173  RH  039%=      5-min Rain = 0
KME1 151804Z 12008KT 33/18 A2997 RMK A01 T03330175  RH  039%=      5-min Rain = 0
KME1 151805Z 16006G12KT 33/17 A2997 RMK A01 T03340169  RH  037%=      5-min Rain = 0
KME1 151806Z 22003KT 33/17 A2997 RMK A01 T03310167  RH  037%=      5-min Rain = 0
KME1 151807Z 16004KT 33/17 A2997 RMK A01 T03280168  RH  038%=      5-min Rain = 0
KME1 151808Z 13008KT 33/17 A2997 RMK A01 T03290169  RH  038%=      5-min Rain = 0
KME1 151809Z 12009KT 33/17 A2997 RMK A01 T03320168  RH  038%=      5-min Rain = 0
KME1 151810Z 11007KT 33/17 A2997 RMK A01 T03320166  RH  037%=      5-min Rain = 0
KME1 151811Z 11006KT 33/17 A2997 RMK A01 T03310167  RH  037%=      5-min Rain = 0
KME1 151812Z 13009KT 33/17 A2997 RMK A01 T03330168  RH  037%=      5-min Rain = 0
KME1 151813Z 13008KT 34/17 A2997 RMK A01 T03350167  RH  037%=      5-min Rain = 0
KME1 151814Z 13007KT 33/17 A2997 RMK A01 T03340166  RH  037%=      5-min Rain = 0
KME1 151815Z 15005KT 33/17 A2997 RMK A01 T03320166  RH  037%=      5-min Rain = 0
KME1 151816Z 12006KT 33/17 A2997 RMK A01 T03320165  RH  037%=      5-min Rain = 0
KME1 151817Z 13006KT 33/17 A2997 RMK A01 T03330166  RH  037%=      5-min Rain = 0
KME1 151818Z 14006KT 33/17 A2997 RMK A01 T03340167  RH  037%=      5-min Rain = 0
KME1 151819Z 13004KT 33/17 A2997 RMK A01 T03340168  RH  037%=      5-min Rain = 0
KME1 151820Z 13004KT 33/17 A2997 RMK A01 T03330168  RH  037%=      5-min Rain = 0
KME1 151821Z 09002KT 33/17 A2997 RMK A01 T03300166  RH  038%=      5-min Rain = 0
KME1 151822Z 11003KT 33/17 A2997 RMK A01 T03290167  RH  038%=      5-min Rain = 0
KME1 151823Z 05003KT 33/17 A2997 RMK A01 T03330166  RH  037%=      5-min Rain = 0
KME1 151824Z 13003KT 33/17 A2997 RMK A01 T03330165  RH  037%=      5-min Rain = 0
KME1 151825Z 12006KT 33/17 A2997 RMK A01 T03340166  RH  037%=      5-min Rain = 0
KME1 151826Z 13009KT 34/17 A2997 RMK A01 T03350167  RH  037%=      5-min Rain = 0
KME1 151827Z 13009KT 34/17 A2997 RMK A01 T03370167  RH  036%=      5-min Rain = 0
KME1 151828Z 14007KT 34/17 A2997 RMK A01 T03380166  RH  036%=      5-min Rain = 0
KME1 151829Z 12001KT 34/16 A2997 RMK A01 T03350164  RH  036%=      5-min Rain = 0
KME1 151830Z 11005KT 33/17 A2997 RMK A01 T03340165  RH  036%=      5-min Rain = 0
KME1 151831Z 09005KT 34/17 A2997 RMK A01 T03350165  RH  036%=      5-min Rain = 0
KME1 151832Z 10006KT 33/16 A2997 RMK A01 T03340163  RH  036%=      5-min Rain = 0
KME1 151833Z 08006KT 33/16 A2996 RMK A01 T03340163  RH  036%=      5-min Rain = 0
KME1 151834Z 08003KT 33/16 A2996 RMK A01 T03340162  RH  036%=      5-min Rain = 0
KME1 151835Z 12005KT 34/17 A2996 RMK A01 T03390165  RH  035%=      5-min Rain = 0
KME1 151836Z 14007KT 34/16 A2996 RMK A01 T03430163  RH  034%=      5-min Rain = 0
KME1 151837Z 17008KT 34/16 A2996 RMK A01 T03430163  RH  034%=      5-min Rain = 0
KME1 151838Z 17008KT 34/16 A2996 RMK A01 T03420161  RH  034%=      5-min Rain = 0
KME1 151839Z 18006KT 34/16 A2996 RMK A01 T03400161  RH  034%=      5-min Rain = 0
KME1 151840Z 18004KT 34/16 A2996 RMK A01 T03390159  RH  034%=      5-min Rain = 0
KME1 151841Z 18004KT 34/16 A2996 RMK A01 T03390161  RH  035%=      5-min Rain = 0
KME1 151842Z 22002KT 34/16 A2996 RMK A01 T03390164  RH  035%=      5-min Rain = 0
KME1 151843Z 22003KT 34/17 A2996 RMK A01 T03390166  RH  035%=      5-min Rain = 0
KME1 151844Z 19008KT 34/16 A2996 RMK A01 T03390164  RH  035%=      5-min Rain = 0
KME1 151845Z 20008KT 34/16 A2996 RMK A01 T03400161  RH  034%=      5-min Rain = 0
KME1 151846Z 21007KT 34/16 A2996 RMK A01 T03400162  RH  035%=      5-min Rain = 0
KME1 151847Z 21005G10KT 34/16 A2996 RMK A01 T03410162  RH  035%=      5-min Rain = 0
KME1 151848Z 19007KT 34/16 A2996 RMK A01 T03410163  RH  035%=      5-min Rain = 0
KME1 151849Z 20006KT 34/16 A2996 RMK A01 T03430158  RH  033%=      5-min Rain = 0
KME1 151850Z 23006KT 34/16 A2996 RMK A01 T03410159  RH  034%=      5-min Rain = 0
KME1 151851Z 24003KT 34/16 A2996 RMK A01 T03400160  RH  034%=      5-min Rain = 0
KME1 151852Z 19003KT 34/16 A2996 RMK A01 T03390160  RH  034%=      5-min Rain = 0
KME1 151853Z 18002KT 34/16 A2996 RMK A01 T03390161  RH  034%=      5-min Rain = 0
KME1 151854Z 23001KT 34/16 A2996 RMK A01 T03400162  RH  035%=      5-min Rain = 0
KME1 151855Z 21006KT 34/16 A2996 RMK A01 T03420163  RH  034%=      5-min Rain = 0
KME1 151856Z 20009KT 34/16 A2995 RMK A01 T03440160  RH  033%=      5-min Rain = 0
KME1 151857Z 20009KT 34/16 A2996 RMK A01 T03440158  RH  033%=      5-min Rain = 0
KME1 151858Z 19006KT 34/16 A2996 RMK A01 T03420155  RH  033%=      5-min Rain = 0
KME1 151859Z 20006KT 34/15 A2996 RMK A01 T03410154  RH  033%=      5-min Rain = 0
KME1 151900Z 21004KT 34/15 A2995 RMK A01 T03400154  RH  033%=      5-min Rain = 0
KME1 151901Z 19005KT 34/16 A2995 RMK A01 T03410158  RH  033%=      5-min Rain = 0
KME1 151902Z 18005KT 34/16 A2995 RMK A01 T03440160  RH  033%=      5-min Rain = 0
KME1 151903Z 16005KT 35/16 A2995 RMK A01 T03480163  RH  033%=      5-min Rain = 0
KME1 151904Z 11007KT 35/17 A2995 RMK A01 T03510166  RH  033%=      5-min Rain = 0
KME1 151905Z 11006KT 35/16 A2995 RMK A01 T03500164  RH  033%=      5-min Rain = 0
KME1 151906Z 13004KT 35/16 A2995 RMK A01 T03470162  RH  033%=      5-min Rain = 0
KME1 151907Z 18007KT 35/16 A2995 RMK A01 T03480161  RH  033%=      5-min Rain = 0
KME1 151908Z 15006KT 35/16 A2995 RMK A01 T03490159  RH  032%=      5-min Rain = 0
KME1 151909Z 16004KT 35/16 A2995 RMK A01 T03460155  RH  032%=      5-min Rain = 0
KME1 151910Z 26001KT 34/16 A2995 RMK A01 T03420156  RH  033%=      5-min Rain = 0
KME1 151911Z 12002KT 34/16 A2995 RMK A01 T03400158  RH  034%=      5-min Rain = 0
KME1 151912Z 15009KT 34/16 A2995 RMK A01 T03400161  RH  034%=      5-min Rain = 0
KME1 151913Z 14004KT 34/16 A2995 RMK A01 T03410160  RH  034%=      5-min Rain = 0
KME1 151914Z 16003KT 34/16 A2995 RMK A01 T03400160  RH  034%=      5-min Rain = 0
KME1 151915Z 17006KT 34/16 A2995 RMK A01 T03390160  RH  034%=      5-min Rain = 0
KME1 151916Z 16003KT 34/16 A2995 RMK A01 T03410160  RH  034%=      5-min Rain = 0
KME1 151917Z 18001KT 34/16 A2995 RMK A01 T03420161  RH  034%=      5-min Rain = 0
KME1 151918Z 30000KT 34/16 A2994 RMK A01 T03420160  RH  034%=      5-min Rain = 0
KME1 151919Z 33000KT 34/16 A2994 RMK A01 T03430161  RH  034%=      5-min Rain = 0
KME1 151920Z 32001KT 34/16 A2994 RMK A01 T03440162  RH  034%=      5-min Rain = 0
KME1 151921Z 11002KT 34/16 A2994 RMK A01 T03440164  RH  034%=      5-min Rain = 0
KME1 151922Z 20004KT 35/17 A2994 RMK A01 T03480165  RH  034%=      5-min Rain = 0
KME1 151923Z 21004KT 35/16 A2994 RMK A01 T03520163  RH  033%=      5-min Rain = 0
KME1 151924Z 20003KT 35/16 A2994 RMK A01 T03520164  RH  033%=      5-min Rain = 0
KME1 151925Z 17003KT 35/16 A2994 RMK A01 T03500164  RH  033%=      5-min Rain = 0
KME1 151926Z 16004KT 35/16 A2994 RMK A01 T03500164  RH  033%=      5-min Rain = 0
KME1 151927Z 15006KT 35/16 A2994 RMK A01 T03510161  RH  032%=      5-min Rain = 0
KME1 151928Z 11004KT 35/16 A2994 RMK A01 T03510156  RH  031%=      5-min Rain = 0
KME1 151929Z 14005KT 35/16 A2994 RMK A01 T03480156  RH  032%=      5-min Rain = 0
KME1 151930Z 12008KT 35/16 A2994 RMK A01 T03490158  RH  032%=      5-min Rain = 0
KME1 151931Z 10007KT 36/16 A2994 RMK A01 T03560160  RH  031%=      5-min Rain = 0
KME1 151932Z 11006KT 36/16 A2994 RMK A01 T03570158  RH  031%=      5-min Rain = 0
KME1 151933Z 08004KT 36/16 A2994 RMK A01 T03560159  RH  031%=      5-min Rain = 0
KME1 151934Z 07003KT 35/16 A2993 RMK A01 T03530160  RH  032%=      5-min Rain = 0
KME1 151935Z 02003KT 35/16 A2993 RMK A01 T03530158  RH  031%=      5-min Rain = 0
KME1 151936Z 04001KT 35/16 A2993 RMK A01 T03500157  RH  032%=      5-min Rain = 0
KME1 151937Z 25001KT 35/16 A2993 RMK A01 T03490158  RH  032%=      5-min Rain = 0
KME1 151938Z 13002KT 35/16 A2993 RMK A01 T03510161  RH  032%=      5-min Rain = 0
KME1 151939Z 15003KT 36/16 A2993 RMK A01 T03550162  RH  032%=      5-min Rain = 0
KME1 151940Z 21004KT 36/16 A2993 RMK A01 T03550160  RH  031%=      5-min Rain = 0
KME1 151941Z 21006KT 35/16 A2993 RMK A01 T03540158  RH  031%=      5-min Rain = 0
KME1 151942Z 19004KT 36/16 A2993 RMK A01 T03550159  RH  031%=      5-min Rain = 0
KME1 151943Z 19008KT 36/16 A2993 RMK A01 T03570156  RH  030%=      5-min Rain = 0
KME1 151944Z 17008KT 36/16 A2993 RMK A01 T03580160  RH  031%=      5-min Rain = 0
KME1 151945Z 16005KT 36/16 A2993 RMK A01 T03580163  RH  031%=      5-min Rain = 0
KME1 151946Z 15009KT 36/16 A2993 RMK A01 T03570164  RH  032%=      5-min Rain = 0
KME1 151947Z 12008KT 36/16 A2993 RMK A01 T03570163  RH  032%=      5-min Rain = 0
KME1 151948Z 12008KT 36/16 A2993 RMK A01 T03570162  RH  031%=      5-min Rain = 0
KME1 151949Z 11008KT 36/16 A2993 RMK A01 T03580163  RH  031%=      5-min Rain = 0
KME1 151950Z 11007KT 36/16 A2993 RMK A01 T03610161  RH  031%=      5-min Rain = 0
KME1 151951Z 11004KT 36/16 A2993 RMK A01 T03600157  RH  030%=      5-min Rain = 0
KME1 151952Z 13004KT 36/16 A2992 RMK A01 T03560157  RH  031%=      5-min Rain = 0
KME1 151953Z 09004KT 36/16 A2992 RMK A01 T03560158  RH  031%=      5-min Rain = 0
KME1 151954Z 10004KT 36/16 A2992 RMK A01 T03570160  RH  031%=      5-min Rain = 0
KME1 151955Z 13005G11KT 36/16 A2992 RMK A01 T03590160  RH  031%=      5-min Rain = 0
KME1 151956Z 17007G12KT 36/15 A2992 RMK A01 T03590154  RH  030%=      5-min Rain = 0
KME1 151957Z 15007KT 36/15 A2992 RMK A01 T03560154  RH  030%=      5-min Rain = 0
KME1 151958Z 13009KT 36/16 A2992 RMK A01 T03560156  RH  030%=      5-min Rain = 0
KME1 151959Z 13009KT 36/16 A2992 RMK A01 T03570155  RH  030%=      5-min Rain = 0
KME1 152000Z 12008KT 36/15 A2992 RMK A01 T03570154  RH  030%=      5-min Rain = 0
KME1 152001Z 12005KT 36/16 A2992 RMK A01 T03590155  RH  030%=      5-min Rain = 0
KME1 152002Z 11005KT 36/15 A2992 RMK A01 T03590154  RH  029%=      5-min Rain = 0
KME1 152003Z 10009KT 36/16 A2992 RMK A01 T03560156  RH  030%=      5-min Rain = 0
KME1 152004Z 09007KT 36/16 A2992 RMK A01 T03560156  RH  030%=      5-min Rain = 0
KME1 152005Z 10007KT 36/16 A2992 RMK A01 T03560157  RH  031%=      5-min Rain = 0
KME1 152006Z 13004KT 36/16 A2992 RMK A01 T03600158  RH  030%=      5-min Rain = 0
KME1 152007Z 16009G14KT 36/16 A2992 RMK A01 T03620159  RH  030%=      5-min Rain = 0
KME1 152008Z 18009KT 36/16 A2992 RMK A01 T03630159  RH  030%=      5-min Rain = 0
KME1 152009Z 17005KT 36/16 A2992 RMK A01 T03590157  RH  030%=      5-min Rain = 0
KME1 152010Z 17003G8KT 35/16 A2992 RMK A01 T03530158  RH  031%=      5-min Rain = 0
KME1 152011Z 13009KT 36/16 A2992 RMK A01 T03550159  RH  031%=      5-min Rain = 0
KME1 152012Z 13008KT 36/15 A2992 RMK A01 T03590154  RH  030%=      5-min Rain = 0
KME1 152013Z 12007KT 36/15 A2992 RMK A01 T03610153  RH  029%=      5-min Rain = 0
KME1 152014Z 11009KT 36/15 A2992 RMK A01 T03620152  RH  029%=      5-min Rain = 0
KME1 152015Z 11009KT 36/15 A2991 RMK A01 T03630150  RH  028%=      5-min Rain = 0
KME1 152016Z 11006KT 36/15 A2991 RMK A01 T03610149  RH  028%=      5-min Rain = 0
KME1 152017Z 12010KT 36/15 A2991 RMK A01 T03600150  RH  029%=      5-min Rain = 0
KME1 152018Z 11008KT 36/15 A2991 RMK A01 T03600151  RH  029%=      5-min Rain = 0
KME1 152019Z 12010KT 36/15 A2991 RMK A01 T03580151  RH  029%=      5-min Rain = 0
KME1 152020Z 13010KT 36/16 A2991 RMK A01 T03570155  RH  030%=      5-min Rain = 0
KME1 152021Z 15009KT 36/16 A2991 RMK A01 T03580156  RH  030%=      5-min Rain = 0
KME1 152022Z 15006KT 36/15 A2991 RMK A01 T03590154  RH  030%=      5-min Rain = 0
KME1 152023Z 15010KT 36/16 A2991 RMK A01 T03570156  RH  030%=      5-min Rain = 0
KME1 152024Z 14009KT 36/16 A2991 RMK A01 T03610157  RH  030%=      5-min Rain = 0
KME1 152025Z 16009KT 36/16 A2991 RMK A01 T03600156  RH  030%=      5-min Rain = 0
KME1 152026Z 15008KT 36/16 A2991 RMK A01 T03570156  RH  030%=      5-min Rain = 0
KME1 152027Z 15006KT 36/15 A2991 RMK A01 T03560154  RH  030%=      5-min Rain = 0
KME1 152028Z 18004KT 36/15 A2991 RMK A01 T03550154  RH  030%=      5-min Rain = 0
KME1 152029Z 13004KT 36/15 A2991 RMK A01 T03550151  RH  030%=      5-min Rain = 0
KME1 152030Z 12000KT 35/15 A2991 RMK A01 T03530148  RH  029%=      5-min Rain = 0
KME1 152031Z 11003KT 35/15 A2991 RMK A01 T03530149  RH  029%=      5-min Rain = 0
KME1 152032Z 12004KT 35/15 A2991 RMK A01 T03540150  RH  030%=      5-min Rain = 0
KME1 152033Z 11004KT 36/15 A2991 RMK A01 T03570153  RH  030%=      5-min Rain = 0
KME1 152034Z 13007KT 36/15 A2991 RMK A01 T03610153  RH  029%=      5-min Rain = 0
KME1 152035Z 15009KT 36/16 A2991 RMK A01 T03640157  RH  029%=      5-min Rain = 0
KME1 152036Z 15011KT 37/16 A2991 RMK A01 T03650158  RH  029%=      5-min Rain = 0
KME1 152037Z 15009KT 36/16 A2991 RMK A01 T03640157  RH  029%=      5-min Rain = 0
KME1 152038Z 17008KT 36/16 A299 RMK A01 T03630157  RH  029%=      5-min Rain = 0
KME1 152039Z 15009KT 36/16 A299 RMK A01 T03620156  RH  029%=      5-min Rain = 0
KME1 152040Z 14009KT 36/16 A2991 RMK A01 T03640156  RH  029%=      5-min Rain = 0
KME1 152041Z 18005KT 36/15 A299 RMK A01 T03620154  RH  029%=      5-min Rain = 0
KME1 152042Z 20003KT 36/15 A299 RMK A01 T03570153  RH  030%=      5-min Rain = 0
KME1 152043Z 11003KT 36/15 A299 RMK A01 T03550154  RH  030%=      5-min Rain = 0
KME1 152044Z 16007KT 36/16 A299 RMK A01 T03590157  RH  030%=      5-min Rain = 0
KME1 152045Z 13007KT 37/16 A299 RMK A01 T03650157  RH  029%=      5-min Rain = 0
KME1 152046Z 14006KT 37/15 A299 RMK A01 T03650154  RH  029%=      5-min Rain = 0
KME1 152047Z 13008KT 36/15 A299 RMK A01 T03600154  RH  029%=      5-min Rain = 0
KME1 152048Z 14009KT 36/15 A299 RMK A01 T03570153  RH  030%=      5-min Rain = 0
KME1 152049Z 15010G15KT 35/15 A299 RMK A01 T03530152  RH  030%=      5-min Rain = 0
KME1 152050Z 14008KT 35/15 A299 RMK A01 T03500153  RH  031%=      5-min Rain = 0
KME1 152051Z 15009KT 35/15 A299 RMK A01 T03470154  RH  032%=      5-min Rain = 0
KME1 152052Z 16010KT 35/16 A299 RMK A01 T03450156  RH  032%=      5-min Rain = 0
KME1 152053Z 16006KT 34/16 A299 RMK A01 T03430157  RH  033%=      5-min Rain = 0
KME1 152054Z 15007KT 34/16 A299 RMK A01 T03430157  RH  033%=      5-min Rain = 0
KME1 152055Z 16010KT 34/16 A2989 RMK A01 T03440157  RH  033%=      5-min Rain = 0
KME1 152056Z 16011G16KT 35/16 A2989 RMK A01 T03460157  RH  033%=      5-min Rain = 0
KME1 152057Z 15008KT 35/16 A2989 RMK A01 T03500159  RH  032%=      5-min Rain = 0
KME1 152058Z 15006KT 35/16 A2989 RMK A01 T03510159  RH  032%=      5-min Rain = 0
KME1 152059Z 15008KT 35/16 A2989 RMK A01 T03510159  RH  032%=      5-min Rain = 0
KME1 152100Z 14011KT 35/16 A2989 RMK A01 T03500159  RH  032%=      5-min Rain = 0
KME1 152101Z 13009KT 35/16 A2989 RMK A01 T03490157  RH  032%=      5-min Rain = 0
KME1 152102Z 12007KT 35/16 A2989 RMK A01 T03470156  RH  032%=      5-min Rain = 0
KME1 152103Z 12007KT 35/16 A2989 RMK A01 T03460156  RH  032%=      5-min Rain = 0
KME1 152104Z 11008KT 35/16 A2989 RMK A01 T03480156  RH  032%=      5-min Rain = 0
KME1 152105Z 14008KT 35/16 A2988 RMK A01 T03510157  RH  031%=      5-min Rain = 0
KME1 152106Z 14003KT 35/16 A2988 RMK A01 T03520155  RH  031%=      5-min Rain = 0
KME1 152107Z 13004KT 35/16 A2988 RMK A01 T03500155  RH  031%=      5-min Rain = 0
KME1 152108Z 10006KT 35/16 A2988 RMK A01 T03480157  RH  032%=      5-min Rain = 0
KME1 152109Z 13007KT 35/16 A2988 RMK A01 T03480156  RH  032%=      5-min Rain = 0
KME1 152110Z 14008KT 35/16 A2988 RMK A01 T03490155  RH  031%=      5-min Rain = 0
KME1 152111Z 16012KT 35/16 A2988 RMK A01 T03480155  RH  032%=      5-min Rain = 0
KME1 152112Z 17009KT 35/15 A2988 RMK A01 T03450154  RH  032%=      5-min Rain = 0
KME1 152113Z 16010KT 34/15 A2987 RMK A01 T03430154  RH  032%=      5-min Rain = 0
KME1 152114Z 16012KT 34/16 A2987 RMK A01 T03440155  RH  032%=      5-min Rain = 0
KME1 152115Z 17010KT 35/15 A2987 RMK A01 T03480154  RH  031%=      5-min Rain = 0
KME1 152116Z 16007KT 35/15 A2987 RMK A01 T03490153  RH  031%=      5-min Rain = 0
KME1 152117Z 18007KT 35/15 A2987 RMK A01 T03500154  RH  031%=      5-min Rain = 0
KME1 152118Z 16009KT 35/15 A2987 RMK A01 T03530154  RH  030%=      5-min Rain = 0
KME1 152119Z 14010KT 36/15 A2987 RMK A01 T03550154  RH  030%=      5-min Rain = 0
KME1 152120Z 14009KT 36/15 A2987 RMK A01 T03550153  RH  030%=      5-min Rain = 0
KME1 152121Z 15007KT 35/15 A2987 RMK A01 T03530154  RH  031%=      5-min Rain = 0
KME1 152122Z 13009KT 35/15 A2987 RMK A01 T03540152  RH  030%=      5-min Rain = 0
KME1 152123Z 15005G11KT 35/15 A2987 RMK A01 T03540149  RH  029%=      5-min Rain = 0
KME1 152124Z 12002KT 35/15 A2986 RMK A01 T03490147  RH  030%=      5-min Rain = 0
KME1 152125Z 15003KT 35/15 A2986 RMK A01 T03470147  RH  030%=      5-min Rain = 0
KME1 152126Z 14003KT 35/15 A2986 RMK A01 T03460146  RH  030%=      5-min Rain = 0
KME1 152127Z 15010KT 34/15 A2986 RMK A01 T03440146  RH  031%=      5-min Rain = 0
KME1 152128Z 15008KT 34/15 A2986 RMK A01 T03440145  RH  030%=      5-min Rain = 0
KME1 152129Z 15006G12KT 35/15 A2986 RMK A01 T03460145  RH  030%=      5-min Rain = 0
KME1 152130Z 16011KT 35/15 A2986 RMK A01 T03480146  RH  030%=      5-min Rain = 0
KME1 152131Z 17011KT 35/14 A2986 RMK A01 T03480144  RH  029%=      5-min Rain = 0
KME1 152132Z 16006G11KT 35/14 A2986 RMK A01 T03470143  RH  029%=      5-min Rain = 0
KME1 152133Z 18008KT 35/14 A2986 RMK A01 T03450144  RH  030%=      5-min Rain = 0
KME1 152134Z 17012KT 34/15 A2985 RMK A01 T03430147  RH  031%=      5-min Rain = 0
KME1 152135Z 17013KT 34/15 A2985 RMK A01 T03420150  RH  032%=      5-min Rain = 0
KME1 152136Z 17016KT 34/15 A2985 RMK A01 T03410149  RH  032%=      5-min Rain = 0
KME1 152137Z 16014KT 34/15 A2985 RMK A01 T03390147  RH  032%=      5-min Rain = 0
KME1 152138Z 16009KT 34/14 A2985 RMK A01 T03370144  RH  031%=      5-min Rain = 0
KME1 152139Z 14008KT 34/15 A2985 RMK A01 T03370145  RH  032%=      5-min Rain = 0
KME1 152140Z 15007KT 34/14 A2985 RMK A01 T03370144  RH  031%=      5-min Rain = 0
KME1 152141Z 14005KT 34/14 A2985 RMK A01 T03370144  RH  031%=      5-min Rain = 0
KME1 152142Z 12009KT 34/14 A2985 RMK A01 T03370144  RH  031%=      5-min Rain = 0
KME1 152143Z 14010KT 34/14 A2985 RMK A01 T03370142  RH  031%=      5-min Rain = 0
KME1 152144Z 13009KT 34/14 A2985 RMK A01 T03370141  RH  031%=      5-min Rain = 0
KME1 152145Z 14011KT 34/14 A2985 RMK A01 T03360140  RH  031%=      5-min Rain = 0
KME1 152146Z 13012KT 34/14 A2985 RMK A01 T03350139  RH  031%=      5-min Rain = 0
KME1 152147Z 15009KT 34/14 A2985 RMK A01 T03350140  RH  031%=      5-min Rain = 0
KME1 152148Z 15008KT 34/14 A2984 RMK A01 T03350141  RH  031%=      5-min Rain = 0
KME1 152149Z 15011KT 34/14 A2984 RMK A01 T03360143  RH  031%=      5-min Rain = 0
KME1 152150Z 15010KT 34/15 A2984 RMK A01 T03350148  RH  032%=      5-min Rain = 0
KME1 152151Z 15011KT 33/15 A2984 RMK A01 T03340148  RH  033%=      5-min Rain = 0
KME1 152152Z 15015G20KT 33/15 A2983 RMK A01 T03330146  RH  032%=      5-min Rain = 0
KME1 152153Z 16014G20KT 33/15 A2984 RMK A01 T03330145  RH  032%=      5-min Rain = 0
KME1 152154Z 15013KT 33/14 A2984 RMK A01 T03330144  RH  032%=      5-min Rain = 0
KME1 152155Z 16009KT 33/14 A2984 RMK A01 T03320144  RH  032%=      5-min Rain = 0
KME1 152156Z 15011KT 33/14 A2984 RMK A01 T03320144  RH  032%=      5-min Rain = 0
KME1 152157Z 16008G13KT 33/14 A2984 RMK A01 T03310144  RH  033%=      5-min Rain = 0
KME1 152158Z 16010KT 33/15 A2984 RMK A01 T03310146  RH  033%=      5-min Rain = 0
KME1 152159Z 15010KT 33/15 A2983 RMK A01 T03300145  RH  033%=      5-min Rain = 0
KME1 152200Z 14010G15KT 33/15 A2983 RMK A01 T03290146  RH  033%=      5-min Rain = 0
KME1 152201Z 15014KT 33/15 A2983 RMK A01 T03290145  RH  033%=      5-min Rain = 0
KME1 152202Z 15013KT 33/15 A2983 RMK A01 T03290146  RH  033%=      5-min Rain = 0
KME1 152203Z 15011KT 33/15 A2984 RMK A01 T03280149  RH  034%=      5-min Rain = 0
KME1 152204Z 16008KT 33/16 A2984 RMK A01 T03260155  RH  036%=      5-min Rain = 0
KME1 152205Z 15008G13KT 32/15 A2984 RMK A01 T03230153  RH  036%=      5-min Rain = 0
KME1 152206Z 15009KT 32/15 A2985 RMK A01 T03220151  RH  036%=      5-min Rain = 0
KME1 152207Z 15009KT 32/15 A2985 RMK A01 T03220151  RH  036%=      5-min Rain = 0
KME1 152208Z 14007KT 32/15 A2986 RMK A01 T03220152  RH  036%=      5-min Rain = 0
KME1 152209Z 15006KT 32/16 A2986 RMK A01 T03230158  RH  037%=      5-min Rain = 0
KME1 152210Z 16005KT 32/16 A2986 RMK A01 T03210164  RH  039%=      5-min Rain = 0
KME1 152211Z 19004KT 32/17 A2987 RMK A01 T03190169  RH  041%=      5-min Rain = 0
KME1 152212Z 16004KT 32/18 A2987 RMK A01 T03160181  RH  045%=      5-min Rain = 0
KME1 152213Z 16006KT 31/18 A2987 RMK A01 T03110180  RH  045%=      5-min Rain = 0
KME1 152214Z 15006KT 31/18 A2987 RMK A01 T03070181  RH  047%=      5-min Rain = 0
KME1 152215Z 19006KT 30/18 A2987 RMK A01 T03040181  RH  048%=      5-min Rain = 0
KME1 152216Z 20006KT 30/19 A2988 RMK A01 T03020186  RH  050%=      5-min Rain = 0
KME1 152217Z 18005KT 30/18 A2988 RMK A01 T03000175  RH  047%=      5-min Rain = 0
KME1 152218Z 22005KT 30/19 A2988 RMK A01 T03000194  RH  053%=      5-min Rain = 0
KME1 152219Z 24005KT 30/21 A2988 RMK A01 T02970209  RH  059%=      5-min Rain = 0
KME1 152220Z 27007KT 29/21 A2988 RMK A01 T02910212  RH  062%=      5-min Rain = 0.01
KME1 152221Z 30011KT 28/21 A2988 RMK A01 T02820207  RH  064%=      5-min Rain = 0.01
KME1 152222Z 30010KT 27/21 A2988 RMK A01 T02690205  RH  068%=      5-min Rain = 0.01
KME1 152223Z 29007KT 26/21 A2988 RMK A01 T02570207  RH  074%=      5-min Rain = 0.01
KME1 152224Z 28009KT 25/21 A2988 RMK A01 T02500205  RH  076%=      5-min Rain = 0.01
KME1 152225Z 28006KT 25/21 A2988 RMK A01 T02460206  RH  078%=      5-min Rain = 0
KME1 152226Z 23013KT 25/20 A2987 RMK A01 T02450195  RH  074%=      5-min Rain = 0
KME1 152227Z 24013KT 25/18 A2987 RMK A01 T02480179  RH  065%=      5-min Rain = 0
KME1 152228Z 22014KT 25/18 A2987 RMK A01 T02510183  RH  066%=      5-min Rain = 0.01
KME1 152229Z 22009KT 25/18 A2987 RMK A01 T02510183  RH  066%=      5-min Rain = 0
KME1 152230Z 22006KT 25/19 A2987 RMK A01 T02500186  RH  067%=      5-min Rain = 0.01
KME1 152231Z 22005KT 25/19 A2986 RMK A01 T02500190  RH  069%=      5-min Rain = 0.01
KME1 152232Z 21006KT 25/19 A2986 RMK A01 T02500191  RH  070%=      5-min Rain = 0
KME1 152233Z 22009KT 25/19 A2986 RMK A01 T02490189  RH  069%=      5-min Rain = 0.01
KME1 152234Z 22011KT 25/19 A2986 RMK A01 T02480194  RH  072%=      5-min Rain = 0
KME1 152235Z 21011KT 24/20 A2986 RMK A01 T02440197  RH  075%=      5-min Rain = 0
KME1 152236Z 21013KT 24/20 A2985 RMK A01 T02390198  RH  078%=      5-min Rain = 0.01
KME1 152237Z 20012KT 23/19 A2985 RMK A01 T02340194  RH  078%=      5-min Rain = 0.01
KME1 152238Z 19009KT 23/19 A2985 RMK A01 T02320192  RH  078%=      5-min Rain = 0
KME1 152239Z 18007KT 23/19 A2985 RMK A01 T02310191  RH  078%=      5-min Rain = 0
KME1 152240Z 17006KT 23/19 A2985 RMK A01 T02310192  RH  078%=      5-min Rain = 0
KME1 152241Z 17007KT 23/20 A2985 RMK A01 T02310195  RH  080%=      5-min Rain = 0
KME1 152242Z 18007KT 23/20 A2985 RMK A01 T02310195  RH  080%=      5-min Rain = 0.01
KME1 152243Z 20007KT 23/20 A2985 RMK A01 T02310198  RH  081%=      5-min Rain = 0
KME1 152244Z 18007KT 23/20 A2986 RMK A01 T02310199  RH  082%=      5-min Rain = 0
KME1 152245Z 16007KT 23/20 A2986 RMK A01 T02310200  RH  083%=      5-min Rain = 0
KME1 152246Z 18005KT 23/20 A2986 RMK A01 T02310198  RH  082%=      5-min Rain = 0
KME1 152247Z 18006KT 23/20 A2986 RMK A01 T02320200  RH  082%=      5-min Rain = 0
KME1 152248Z 20006G14KT 23/20 A2987 RMK A01 T02330198  RH  081%=      5-min Rain = 0
KME1 152249Z 20009G17KT 23/19 A2988 RMK A01 T02340191  RH  076%=      5-min Rain = 0
KME1 152250Z 27007G14KT 24/19 A299 RMK A01 T02380188  RH  073%=      5-min Rain = 0.01
KME1 152251Z 32016G21KT 24/19 A2992 RMK A01 T02380193  RH  076%=      5-min Rain = 0.01
KME1 152252Z 32015G22KT 23/19 A2992 RMK A01 T02280186  RH  077%=      5-min Rain = 0
KME1 152253Z 31017G23KT 22/18 A2994 RMK A01 T02190182  RH  080%=      5-min Rain = 0
KME1 152254Z 30014G19KT 21/18 A2995 RMK A01 T02140182  RH  082%=      5-min Rain = 0
KME1 152255Z 30017G23KT 21/18 A2995 RMK A01 T02120179  RH  081%=      5-min Rain = 0.01
KME1 152256Z 29018G25KT 21/18 A2996 RMK A01 T02120181  RH  082%=      5-min Rain = 0.01
KME1 152257Z 27015G21KT 21/18 A2997 RMK A01 T02110182  RH  083%=      5-min Rain = 0
KME1 152258Z 26020KT 21/18 A2997 RMK A01 T02090180  RH  084%=      5-min Rain = 0.01
KME1 152259Z 25017KT 21/18 A2999 RMK A01 T02060179  RH  084%=      5-min Rain = 0
KME1 152300Z 23017G22KT 21/18 A30 RMK A01 T02050179  RH  085%=      5-min Rain = 0.02
KME1 152301Z 23015G22KT 20/18 A3001 RMK A01 T02030180  RH  086%=      5-min Rain = 0.03
KME1 152302Z 23020G27KT 20/18 A3001 RMK A01 T02010179  RH  087%=      5-min Rain = 0.06
KME1 152303Z 22025G30KT 20/18 A30 RMK A01 T01980180  RH  089%=      5-min Rain = 0.08
KME1 152304Z 22026KT 20/18 A2999 RMK A01 T01950181  RH  092%=      5-min Rain = 0.08
KME1 152305Z 21026G32KT 19/18 A2999 RMK A01 T01920182  RH  094%=      5-min Rain = 0.08
KME1 152306Z 21022G29KT 19/18 A2999 RMK A01 T01910183  RH  095%=      5-min Rain = 0.06
KME1 152307Z 22025G31KT 19/18 A2999 RMK A01 T01900183  RH  096%=      5-min Rain = 0.08
KME1 152308Z 22019G24KT 19/18 A30 RMK A01 T01890183  RH  096%=      5-min Rain = 0.08
KME1 152309Z 23019G28KT 19/18 A30 RMK A01 T01890183  RH  096%=      5-min Rain = 0.1
KME1 152310Z 24013KT 19/18 A30 RMK A01 T01880182  RH  096%=      5-min Rain = 0.07
KME1 152311Z 22009KT 19/18 A30 RMK A01 T01870182  RH  097%=      5-min Rain = 0.05
KME1 152312Z 22008KT 19/18 A30 RMK A01 T01880184  RH  097%=      5-min Rain = 0.04
KME1 152313Z 20006KT 19/18 A30 RMK A01 T01880184  RH  097%=      5-min Rain = 0.04
KME1 152314Z 17007KT 19/18 A30 RMK A01 T01890184  RH  097%=      5-min Rain = 0.03
KME1 152315Z 16009KT 19/18 A3001 RMK A01 T01890184  RH  097%=      5-min Rain = 0.03
KME1 152316Z 16006KT 19/18 A3001 RMK A01 T01890184  RH  097%=      5-min Rain = 0.02
KME1 152317Z 15003KT 19/18 A3001 RMK A01 T01880184  RH  097%=      5-min Rain = 0.01
KME1 152318Z 10004KT 19/18 A30 RMK A01 T01870183  RH  097%=      5-min Rain = 0
KME1 152319Z 07008KT 19/18 A30 RMK A01 T01870182  RH  097%=      5-min Rain = 0.01
KME1 152320Z 07009KT 19/18 A30 RMK A01 T01860182  RH  097%=      5-min Rain = 0
KME1 152321Z 06010KT 19/18 A2999 RMK A01 T01850180  RH  097%=      5-min Rain = 0.01
KME1 152322Z 07012KT 18/18 A2998 RMK A01 T01840179  RH  097%=      5-min Rain = 0
KME1 152323Z 06009KT 18/18 A2998 RMK A01 T01830178  RH  097%=      5-min Rain = 0
KME1 152324Z 06008KT 18/18 A2998 RMK A01 T01820177  RH  097%=      5-min Rain = 0.01
KME1 152325Z 07008KT 18/18 A2997 RMK A01 T01810176  RH  097%=      5-min Rain = 0
KME1 152326Z 08009KT 18/18 A2997 RMK A01 T01810176  RH  097%=      5-min Rain = 0.01
KME1 152327Z 06009KT 18/18 A2997 RMK A01 T01800176  RH  097%=      5-min Rain = 0.01
KME1 152328Z 06008KT 18/18 A2997 RMK A01 T01800175  RH  097%=      5-min Rain = 0
KME1 152329Z 06007KT 18/18 A2997 RMK A01 T01800175  RH  097%=      5-min Rain = 0
KME1 152330Z 05006KT 18/18 A2997 RMK A01 T01790175  RH  097%=      5-min Rain = 0.01
KME1 152331Z 04005KT 18/18 A2997 RMK A01 T01790175  RH  097%=      5-min Rain = 0
KME1 152332Z 04004KT 18/18 A2997 RMK A01 T01790175  RH  097%=      5-min Rain = 0
KME1 152333Z 03004KT 18/18 A2997 RMK A01 T01800176  RH  097%=      5-min Rain = 0.01
KME1 152334Z 02003KT 18/18 A2997 RMK A01 T01800176  RH  097%=      5-min Rain = 0
KME1 152335Z 33004KT 18/18 A2997 RMK A01 T01810177  RH  098%=      5-min Rain = 0
KME1 152336Z 33004KT 18/18 A2997 RMK A01 T01810178  RH  098%=      5-min Rain = 0
KME1 152337Z 33006KT 18/18 A2997 RMK A01 T01820178  RH  097%=      5-min Rain = 0
KME1 152338Z 33005KT 18/18 A2997 RMK A01 T01820178  RH  098%=      5-min Rain = 0
KME1 152339Z 33006KT 18/18 A2997 RMK A01 T01830179  RH  098%=      5-min Rain = 0
KME1 152340Z 34006KT 18/18 A2997 RMK A01 T01830179  RH  098%=      5-min Rain = 0
KME1 152341Z 35006KT 18/18 A2997 RMK A01 T01830179  RH  098%=      5-min Rain = 0
KME1 152342Z 35009KT 18/18 A2997 RMK A01 T01830179  RH  098%=      5-min Rain = 0
KME1 152343Z 00010KT 18/18 A2997 RMK A01 T01840180  RH  098%=      5-min Rain = 0.01
KME1 152344Z 00007KT 18/18 A2996 RMK A01 T01840180  RH  098%=      5-min Rain = 0
KME1 152345Z 36006KT 18/18 A2996 RMK A01 T01840181  RH  098%=      5-min Rain = 0
KME1 152346Z 33004KT 19/18 A2996 RMK A01 T01850181  RH  098%=      5-min Rain = 0
KME1 152347Z 34004KT 18/18 A2995 RMK A01 T01840180  RH  097%=      5-min Rain = 0
KME1 152348Z 33003KT 18/18 A2995 RMK A01 T01840180  RH  097%=      5-min Rain = 0
KME1 152349Z 31003KT 18/18 A2995 RMK A01 T01840180  RH  097%=      5-min Rain = 0
KME1 152350Z 31003KT 18/18 A2995 RMK A01 T01840180  RH  098%=      5-min Rain = 0
KME1 152351Z 31003KT 19/18 A2994 RMK A01 T01850182  RH  098%=      5-min Rain = 0
KME1 152352Z 33004KT 19/18 A2994 RMK A01 T01860182  RH  098%=      5-min Rain = 0
KME1 152353Z 34004KT 19/18 A2994 RMK A01 T01860182  RH  098%=      5-min Rain = 0
KME1 152354Z 35003KT 19/18 A2993 RMK A01 T01860182  RH  098%=      5-min Rain = 0
KME1 152355Z 36004KT 19/18 A2993 RMK A01 T01870183  RH  098%=      5-min Rain = 0
KME1 152356Z 02005KT 19/18 A2993 RMK A01 T01870183  RH  098%=      5-min Rain = 0
KME1 152357Z 04005KT 19/18 A2992 RMK A01 T01880184  RH  098%=      5-min Rain = 0
KME1 152358Z 05007KT 19/19 A2992 RMK A01 T01890185  RH  098%=      5-min Rain = 0
KME1 152359Z 06009KT 19/19 A2992 RMK A01 T01900187  RH  098%=      5-min Rain = 0
KME1 160000Z 07009G15KT 19/19 A2992 RMK A01 T01900186  RH  097%=      5-min Rain = 0
KME1 160001Z 09009KT 19/19 A2992 RMK A01 T01900185  RH  097%=      5-min Rain = 0
KME1 160002Z 08009KT 19/19 A2992 RMK A01 T01900185  RH  097%=      5-min Rain = 0
KME1 160003Z 09008KT 19/18 A2992 RMK A01 T01900184  RH  096%=      5-min Rain = 0
KME1 160004Z 09008KT 19/19 A2992 RMK A01 T01910185  RH  096%=      5-min Rain = 0
KME1 160005Z 09009KT 19/18 A2992 RMK A01 T01920184  RH  095%=      5-min Rain = 0
KME1 160006Z 08007KT 19/18 A2992 RMK A01 T01930183  RH  094%=      5-min Rain = 0
KME1 160007Z 08009KT 19/18 A2992 RMK A01 T01940184  RH  094%=      5-min Rain = 0
KME1 160008Z 08007KT 20/19 A2993 RMK A01 T01970185  RH  093%=      5-min Rain = 0
KME1 160009Z 07006KT 20/19 A2993 RMK A01 T01990186  RH  093%=      5-min Rain = 0
KME1 160010Z 07009G14KT 20/19 A2992 RMK A01 T02000187  RH  092%=      5-min Rain = 0
KME1 160011Z 07016G21KT 20/18 A2992 RMK A01 T02010182  RH  089%=      5-min Rain = 0
KME1 160012Z 07012G17KT 20/18 A2992 RMK A01 T02020182  RH  088%=      5-min Rain = 0
KME1 160013Z 07013KT 20/18 A2992 RMK A01 T02030182  RH  087%=      5-min Rain = 0
KME1 160014Z 09011KT 20/18 A2992 RMK A01 T02040181  RH  087%=      5-min Rain = 0
KME1 160015Z 09011KT 20/18 A2992 RMK A01 T02040180  RH  086%=      5-min Rain = 0
KME1 160016Z 08013KT 21/18 A2992 RMK A01 T02050180  RH  086%=      5-min Rain = 0
KME1 160017Z 08011KT 21/18 A2992 RMK A01 T02050181  RH  086%=      5-min Rain = 0
KME1 160018Z 07010G16KT 21/18 A2992 RMK A01 T02060182  RH  086%=      5-min Rain = 0
KME1 160019Z 07011KT 21/18 A2992 RMK A01 T02050183  RH  087%=      5-min Rain = 0
KME1 160020Z 07010G16KT 21/18 A2992 RMK A01 T02050182  RH  087%=      5-min Rain = 0
KME1 160021Z 07016KT 21/18 A2992 RMK A01 T02050181  RH  086%=      5-min Rain = 0
KME1 160022Z 07013KT 21/18 A2992 RMK A01 T02050178  RH  085%=      5-min Rain = 0
KME1 160023Z 06010G15KT 21/18 A2992 RMK A01 T02050180  RH  086%=      5-min Rain = 0
KME1 160024Z 06013G18KT 21/18 A2992 RMK A01 T02050180  RH  086%=      5-min Rain = 0
KME1 160025Z 06013KT 20/18 A2992 RMK A01 T02040178  RH  085%=      5-min Rain = 0
KME1 160026Z 07010KT 20/18 A2992 RMK A01 T02040178  RH  085%=      5-min Rain = 0
KME1 160027Z 07010G15KT 20/18 A2991 RMK A01 T02040178  RH  085%=      5-min Rain = 0
KME1 160028Z 07009KT 20/18 A2991 RMK A01 T02040177  RH  084%=      5-min Rain = 0
KME1 160029Z 07011KT 21/18 A2991 RMK A01 T02050176  RH  083%=      5-min Rain = 0
KME1 160030Z 07010KT 21/18 A2991 RMK A01 T02050175  RH  083%=      5-min Rain = 0
KME1 160031Z 08009KT 21/18 A2991 RMK A01 T02050176  RH  083%=      5-min Rain = 0
KME1 160032Z 08008KT 21/18 A2991 RMK A01 T02050176  RH  084%=      5-min Rain = 0
KME1 160033Z 08007KT 21/18 A2991 RMK A01 T02050176  RH  083%=      5-min Rain = 0
KME1 160034Z 08008KT 21/18 A2991 RMK A01 T02060175  RH  083%=      5-min Rain = 0
KME1 160035Z 09009KT 21/18 A2991 RMK A01 T02060175  RH  082%=      5-min Rain = 0
KME1 160036Z 07008KT 21/17 A2991 RMK A01 T02070174  RH  081%=      5-min Rain = 0
KME1 160037Z 08011G16KT 21/17 A2991 RMK A01 T02070171  RH  080%=      5-min Rain = 0
KME1 160038Z 07010KT 21/17 A2991 RMK A01 T02080170  RH  079%=      5-min Rain = 0
KME1 160039Z 07009KT 21/17 A2991 RMK A01 T02070170  RH  079%=      5-min Rain = 0
KME1 160040Z 06008KT 21/17 A2991 RMK A01 T02080170  RH  079%=      5-min Rain = 0
KME1 160041Z 07008KT 21/17 A2991 RMK A01 T02070171  RH  080%=      5-min Rain = 0
KME1 160042Z 06008KT 21/17 A299 RMK A01 T02070171  RH  080%=      5-min Rain = 0
KME1 160043Z 06006KT 21/17 A299 RMK A01 T02070171  RH  080%=      5-min Rain = 0
KME1 160044Z 07007KT 21/17 A299 RMK A01 T02060172  RH  081%=      5-min Rain = 0
KME1 160045Z 06007KT 21/17 A299 RMK A01 T02060170  RH  080%=      5-min Rain = 0
KME1 160046Z 07005KT 21/17 A299 RMK A01 T02050170  RH  080%=      5-min Rain = 0
KME1 160047Z 08004KT 21/17 A299 RMK A01 T02060171  RH  080%=      5-min Rain = 0
KME1 160048Z 07005KT 21/17 A299 RMK A01 T02060171  RH  080%=      5-min Rain = 0
KME1 160049Z 09003KT 21/17 A299 RMK A01 T02060169  RH  079%=      5-min Rain = 0
KME1 160050Z 09005KT 21/17 A299 RMK A01 T02060170  RH  080%=      5-min Rain = 0
KME1 160051Z 07004KT 21/17 A299 RMK A01 T02050168  RH  079%=      5-min Rain = 0
KME1 160052Z 09003KT 21/17 A299 RMK A01 T02050169  RH  080%=      5-min Rain = 0
KME1 160053Z 09003KT 21/17 A299 RMK A01 T02050170  RH  080%=      5-min Rain = 0
KME1 160054Z 09004KT 21/17 A299 RMK A01 T02050167  RH  079%=      5-min Rain = 0
KME1 160055Z 09005KT 21/17 A299 RMK A01 T02050167  RH  079%=      5-min Rain = 0
KME1 160056Z 09004KT 21/17 A299 RMK A01 T02050167  RH  079%=      5-min Rain = 0
KME1 160057Z 11002KT 21/17 A299 RMK A01 T02050168  RH  079%=      5-min Rain = 0
KME1 160058Z 10003KT 21/17 A299 RMK A01 T02050168  RH  079%=      5-min Rain = 0
KME1 160059Z 09004KT 21/17 A299 RMK A01 T02050168  RH  080%=      5-min Rain = 0
KME1 160100Z 09003KT 20/17 A299 RMK A01 T02040168  RH  080%=      5-min Rain = 0
KME1 160101Z 08002KT 20/17 A299 RMK A01 T02040169  RH  080%=      5-min Rain = 0
KME1 160102Z 11005KT 20/17 A299 RMK A01 T02040170  RH  080%=      5-min Rain = 0
KME1 160103Z 11003KT 20/17 A2991 RMK A01 T02040169  RH  080%=      5-min Rain = 0
KME1 160104Z 09002KT 20/17 A2991 RMK A01 T02040169  RH  080%=      5-min Rain = 0
KME1 160105Z 12003KT 20/17 A2991 RMK A01 T02040169  RH  080%=      5-min Rain = 0
KME1 160106Z 10005KT 20/17 A2991 RMK A01 T02040169  RH  080%=      5-min Rain = 0
KME1 160107Z 10004KT 20/17 A2991 RMK A01 T02040168  RH  080%=      5-min Rain = 0
KME1 160108Z 12004KT 20/17 A2991 RMK A01 T02040168  RH  080%=      5-min Rain = 0
KME1 160109Z 11003KT 20/17 A2991 RMK A01 T02040169  RH  080%=      5-min Rain = 0
KME1 160110Z 13003KT 20/17 A2991 RMK A01 T02040170  RH  080%=      5-min Rain = 0
KME1 160111Z 10005KT 20/17 A2991 RMK A01 T02040169  RH  080%=      5-min Rain = 0
KME1 160112Z 12004KT 21/17 A2991 RMK A01 T02050168  RH  080%=      5-min Rain = 0
KME1 160113Z 11004KT 21/17 A2991 RMK A01 T02050169  RH  080%=      5-min Rain = 0
KME1 160114Z 10004KT 21/17 A2991 RMK A01 T02050169  RH  080%=      5-min Rain = 0
KME1 160115Z 11004KT 21/17 A2991 RMK A01 T02050171  RH  081%=      5-min Rain = 0
KME1 160116Z 11005KT 20/17 A2991 RMK A01 T02040171  RH  081%=      5-min Rain = 0
KME1 160117Z 12005KT 20/17 A2991 RMK A01 T02040171  RH  081%=      5-min Rain = 0
KME1 160118Z 08003KT 20/17 A2991 RMK A01 T02040171  RH  081%=      5-min Rain = 0
KME1 160119Z 14003KT 20/17 A2991 RMK A01 T02040170  RH  081%=      5-min Rain = 0
KME1 160120Z 12004KT 20/17 A2991 RMK A01 T02040170  RH  081%=      5-min Rain = 0
KME1 160121Z 12004KT 20/17 A2991 RMK A01 T02040170  RH  080%=      5-min Rain = 0
KME1 160122Z 11004KT 20/17 A2991 RMK A01 T02040169  RH  080%=      5-min Rain = 0
KME1 160123Z 13005KT 20/17 A2991 RMK A01 T02040166  RH  079%=      5-min Rain = 0
KME1 160124Z 12003KT 20/17 A2991 RMK A01 T02040167  RH  079%=      5-min Rain = 0
KME1 160125Z 11004KT 20/16 A2991 RMK A01 T02040164  RH  078%=      5-min Rain = 0
KME1 160126Z 09004KT 20/16 A2991 RMK A01 T02040164  RH  077%=      5-min Rain = 0
KME1 160127Z 11001KT 20/17 A2991 RMK A01 T02040165  RH  078%=      5-min Rain = 0
KME1 160128Z 10001KT 20/17 A2991 RMK A01 T02040165  RH  078%=      5-min Rain = 0
KME1 160129Z 10002KT 20/16 A2991 RMK A01 T02040163  RH  077%=      5-min Rain = 0
KME1 160130Z 13003KT 20/16 A2991 RMK A01 T02040163  RH  077%=      5-min Rain = 0
KME1 160131Z 13002KT 20/16 A2991 RMK A01 T02040164  RH  078%=      5-min Rain = 0
KME1 160132Z 12003KT 20/16 A2991 RMK A01 T02040164  RH  078%=      5-min Rain = 0
KME1 160133Z 13005KT 20/16 A2991 RMK A01 T02030164  RH  078%=      5-min Rain = 0
KME1 160134Z 13004KT 20/17 A2991 RMK A01 T02030165  RH  079%=      5-min Rain = 0
KME1 160135Z 12006KT 20/16 A2991 RMK A01 T02020164  RH  079%=      5-min Rain = 0
KME1 160136Z 13006KT 20/16 A2991 RMK A01 T02020164  RH  079%=      5-min Rain = 0
KME1 160137Z 11004KT 20/16 A2991 RMK A01 T02020163  RH  078%=      5-min Rain = 0
KME1 160138Z 14004KT 20/16 A2991 RMK A01 T02020164  RH  079%=      5-min Rain = 0
KME1 160139Z 12005KT 20/16 A2991 RMK A01 T02020163  RH  078%=      5-min Rain = 0
KME1 160140Z 13005KT 20/16 A2991 RMK A01 T02010162  RH  078%=      5-min Rain = 0
KME1 160141Z 12004KT 20/16 A2991 RMK A01 T02020162  RH  078%=      5-min Rain = 0
KME1 160142Z 13006KT 20/16 A2991 RMK A01 T02010161  RH  078%=      5-min Rain = 0
KME1 160143Z 14005KT 20/16 A2991 RMK A01 T02010161  RH  078%=      5-min Rain = 0
KME1 160144Z 16001KT 20/16 A2991 RMK A01 T02010161  RH  078%=      5-min Rain = 0
KME1 160145Z 16001KT 20/16 A2991 RMK A01 T02010161  RH  078%=      5-min Rain = 0
KME1 160146Z 21002KT 20/16 A2991 RMK A01 T02010162  RH  078%=      5-min Rain = 0
KME1 160147Z 21002KT 20/16 A2991 RMK A01 T02010163  RH  079%=      5-min Rain = 0
KME1 160148Z 20003KT 20/16 A2991 RMK A01 T02010162  RH  078%=      5-min Rain = 0
KME1 160149Z 21003KT 20/16 A2991 RMK A01 T02010163  RH  079%=      5-min Rain = 0
KME1 160150Z 20004KT 20/17 A2991 RMK A01 T02010165  RH  079%=      5-min Rain = 0
KME1 160151Z 19004KT 20/16 A2991 RMK A01 T02010164  RH  080%=      5-min Rain = 0
KME1 160152Z 19002KT 20/16 A2991 RMK A01 T02010164  RH  079%=      5-min Rain = 0
KME1 160153Z 17003KT 20/17 A2991 RMK A01 T02000165  RH  080%=      5-min Rain = 0
KME1 160154Z 16004KT 20/16 A2991 RMK A01 T02000164  RH  080%=      5-min Rain = 0
KME1 160155Z 17005KT 20/16 A2991 RMK A01 T02000164  RH  079%=      5-min Rain = 0
KME1 160156Z 16005KT 20/16 A2991 RMK A01 T02000162  RH  079%=      5-min Rain = 0
KME1 160157Z 16004KT 20/16 A2991 RMK A01 T02000162  RH  079%=      5-min Rain = 0
KME1 160158Z 15003KT 20/16 A2991 RMK A01 T02000162  RH  079%=      5-min Rain = 0
KME1 160159Z 14003KT 20/16 A2991 RMK A01 T02000163  RH  079%=      5-min Rain = 0
KME1 160200Z 14002KT 20/16 A2991 RMK A01 T02000163  RH  079%=      5-min Rain = 0
KME1 160201Z 10001KT 20/16 A2991 RMK A01 T02000164  RH  079%=      5-min Rain = 0
KME1 160202Z 08001KT 20/16 A2991 RMK A01 T02000164  RH  080%=      5-min Rain = 0
KME1 160203Z 09001KT 20/16 A2991 RMK A01 T02000163  RH  079%=      5-min Rain = 0
KME1 160204Z 09000KT 20/16 A2991 RMK A01 T02000163  RH  079%=      5-min Rain = 0
KME1 160205Z 11001KT 20/16 A2991 RMK A01 T02000164  RH  080%=      5-min Rain = 0
KME1 160206Z 12001KT 20/16 A2991 RMK A01 T01990163  RH  080%=      5-min Rain = 0
KME1 160207Z 12000KT 20/16 A2991 RMK A01 T01990163  RH  080%=      5-min Rain = 0
KME1 160208Z 12001KT 20/16 A2991 RMK A01 T01990162  RH  079%=      5-min Rain = 0
KME1 160209Z 12002KT 20/16 A2991 RMK A01 T01990162  RH  079%=      5-min Rain = 0
KME1 160210Z 11002KT 20/16 A2991 RMK A01 T01990162  RH  080%=      5-min Rain = 0
KME1 160211Z 13002KT 20/16 A2991 RMK A01 T01990163  RH  080%=      5-min Rain = 0
KME1 160212Z 13002KT 20/16 A2991 RMK A01 T01990163  RH  080%=      5-min Rain = 0
KME1 160213Z 12002KT 20/16 A2991 RMK A01 T01990163  RH  080%=      5-min Rain = 0
KME1 160214Z 12002KT 20/16 A2991 RMK A01 T01980164  RH  080%=      5-min Rain = 0
KME1 160215Z 11002KT 20/16 A2991 RMK A01 T01980164  RH  081%=      5-min Rain = 0
KME1 160216Z 11001KT 20/17 A2991 RMK A01 T01980166  RH  082%=      5-min Rain = 0
KME1 160217Z 11001KT 20/17 A2991 RMK A01 T01970165  RH  082%=      5-min Rain = 0
KME1 160218Z 09001KT 20/17 A2991 RMK A01 T01970167  RH  083%=      5-min Rain = 0
KME1 160219Z 09000KT 20/17 A2992 RMK A01 T01970166  RH  082%=      5-min Rain = 0
KME1 160220Z 09000KT 20/17 A2992 RMK A01 T01960166  RH  082%=      5-min Rain = 0
KME1 160221Z 00000KT 20/17 A2992 RMK A01 T01960165  RH  082%=      5-min Rain = 0
KME1 160222Z 35000KT 20/16 A2992 RMK A01 T01960164  RH  082%=      5-min Rain = 0
KME1 160223Z 00001KT 20/17 A2992 RMK A01 T01960166  RH  083%=      5-min Rain = 0
KME1 160224Z 03001KT 20/17 A2992 RMK A01 T01960167  RH  083%=      5-min Rain = 0
KME1 160225Z 00000KT 20/17 A2992 RMK A01 T01960169  RH  084%=      5-min Rain = 0
KME1 160226Z 00000KT 20/17 A2992 RMK A01 T01960169  RH  085%=      5-min Rain = 0
KME1 160227Z 13000KT 20/17 A2992 RMK A01 T01960172  RH  086%=      5-min Rain = 0
KME1 160228Z 13002KT 20/17 A2993 RMK A01 T01950173  RH  087%=      5-min Rain = 0
KME1 160229Z 14002KT 20/17 A2993 RMK A01 T01950173  RH  087%=      5-min Rain = 0
KME1 160230Z 15001KT 19/17 A2993 RMK A01 T01940173  RH  088%=      5-min Rain = 0
KME1 160231Z 17001KT 19/17 A2993 RMK A01 T01930172  RH  087%=      5-min Rain = 0
KME1 160232Z 18002KT 19/17 A2993 RMK A01 T01930170  RH  087%=      5-min Rain = 0
KME1 160233Z 18002KT 19/17 A2993 RMK A01 T01930171  RH  087%=      5-min Rain = 0
KME1 160234Z 19002KT 19/17 A2993 RMK A01 T01930170  RH  087%=      5-min Rain = 0
KME1 160235Z 19002KT 19/17 A2993 RMK A01 T01930171  RH  087%=      5-min Rain = 0
KME1 160236Z 17003KT 19/17 A2993 RMK A01 T01930171  RH  087%=      5-min Rain = 0
KME1 160237Z 16005KT 19/17 A2994 RMK A01 T01930169  RH  086%=      5-min Rain = 0
KME1 160238Z 16004KT 19/17 A2994 RMK A01 T01930167  RH  085%=      5-min Rain = 0
KME1 160239Z 15003KT 19/16 A2994 RMK A01 T01930164  RH  083%=      5-min Rain = 0
KME1 160240Z 18002KT 19/16 A2994 RMK A01 T01930162  RH  082%=      5-min Rain = 0
KME1 160241Z 15002KT 20/16 A2994 RMK A01 T01950162  RH  081%=      5-min Rain = 0
KME1 160242Z 14002KT 20/16 A2994 RMK A01 T01950162  RH  081%=      5-min Rain = 0
KME1 160243Z 14002KT 20/16 A2994 RMK A01 T01960161  RH  080%=      5-min Rain = 0
KME1 160244Z 12001KT 20/16 A2994 RMK A01 T01960163  RH  081%=      5-min Rain = 0
KME1 160245Z 13001KT 20/16 A2995 RMK A01 T01960161  RH  080%=      5-min Rain = 0
KME1 160246Z 11002KT 20/16 A2995 RMK A01 T01970161  RH  080%=      5-min Rain = 0
KME1 160247Z 12001KT 20/16 A2995 RMK A01 T01970160  RH  079%=      5-min Rain = 0
KME1 160248Z 00000KT 20/16 A2995 RMK A01 T01960160  RH  079%=      5-min Rain = 0
KME1 160249Z 00000KT 20/16 A2995 RMK A01 T01970159  RH  079%=      5-min Rain = 0
KME1 160250Z 23001KT 20/16 A2995 RMK A01 T01970160  RH  079%=      5-min Rain = 0
KME1 160251Z 15001KT 20/16 A2995 RMK A01 T01970161  RH  080%=      5-min Rain = 0
KME1 160252Z 22000KT 20/16 A2995 RMK A01 T01970159  RH  079%=      5-min Rain = 0
KME1 160253Z 24001KT 20/16 A2995 RMK A01 T01970159  RH  079%=      5-min Rain = 0
KME1 160254Z 00000KT 20/16 A2995 RMK A01 T01970163  RH  080%=      5-min Rain = 0
KME1 160255Z 00000KT 20/16 A2995 RMK A01 T01980163  RH  081%=      5-min Rain = 0
KME1 160256Z 19001KT 20/17 A2995 RMK A01 T01970165  RH  082%=      5-min Rain = 0
KME1 160257Z 19002KT 20/17 A2995 RMK A01 T01970166  RH  082%=      5-min Rain = 0
KME1 160258Z 18002KT 20/17 A2995 RMK A01 T01970165  RH  082%=      5-min Rain = 0
KME1 160259Z 19002KT 20/16 A2995 RMK A01 T01960164  RH  082%=      5-min Rain = 0
KME1 160300Z 21002KT 20/16 A2995 RMK A01 T01960162  RH  080%=      5-min Rain = 0
KME1 160301Z 20002KT 20/16 A2995 RMK A01 T01960161  RH  080%=      5-min Rain = 0
KME1 160302Z 18002KT 20/16 A2995 RMK A01 T01970163  RH  081%=      5-min Rain = 0
KME1 160303Z 18003KT 20/17 A2995 RMK A01 T01970165  RH  082%=      5-min Rain = 0
KME1 160304Z 17003KT 20/16 A2995 RMK A01 T01970163  RH  081%=      5-min Rain = 0
KME1 160305Z 17003KT 20/16 A2995 RMK A01 T01970163  RH  080%=      5-min Rain = 0
KME1 160306Z 17004KT 20/16 A2995 RMK A01 T01970161  RH  079%=      5-min Rain = 0
KME1 160307Z 17004KT 20/16 A2995 RMK A01 T01980160  RH  078%=      5-min Rain = 0
KME1 160308Z 17005KT 20/16 A2996 RMK A01 T01990160  RH  078%=      5-min Rain = 0
KME1 160309Z 18005KT 20/16 A2996 RMK A01 T01990160  RH  078%=      5-min Rain = 0
KME1 160310Z 17005KT 20/16 A2996 RMK A01 T01990160  RH  078%=      5-min Rain = 0
KME1 160311Z 17005KT 20/16 A2996 RMK A01 T01990161  RH  078%=      5-min Rain = 0
KME1 160312Z 17005KT 20/16 A2996 RMK A01 T02000161  RH  078%=      5-min Rain = 0
KME1 160313Z 17006KT 20/16 A2996 RMK A01 T02000160  RH  078%=      5-min Rain = 0
KME1 160314Z 18006KT 20/16 A2996 RMK A01 T02000159  RH  077%=      5-min Rain = 0
KME1 160315Z 18008KT 20/16 A2996 RMK A01 T02010159  RH  077%=      5-min Rain = 0
KME1 160316Z 18007KT 20/16 A2996 RMK A01 T02010158  RH  076%=      5-min Rain = 0
KME1 160317Z 17006KT 20/16 A2996 RMK A01 T02020158  RH  076%=      5-min Rain = 0
KME1 160318Z 18005KT 20/16 A2996 RMK A01 T02030157  RH  075%=      5-min Rain = 0
KME1 160319Z 18004KT 20/16 A2996 RMK A01 T02030159  RH  076%=      5-min Rain = 0
KME1 160320Z 17007KT 20/16 A2996 RMK A01 T02030159  RH  076%=      5-min Rain = 0
KME1 160321Z 18006KT 20/16 A2997 RMK A01 T02030157  RH  075%=      5-min Rain = 0
KME1 160322Z 19005KT 20/16 A2997 RMK A01 T02040158  RH  075%=      5-min Rain = 0
KME1 160323Z 18005KT 20/16 A2997 RMK A01 T02040159  RH  075%=      5-min Rain = 0
KME1 160324Z 17004KT 20/16 A2997 RMK A01 T02040158  RH  075%=      5-min Rain = 0
KME1 160325Z 18002KT 20/16 A2997 RMK A01 T02040159  RH  076%=      5-min Rain = 0
KME1 160326Z 16003KT 20/16 A2997 RMK A01 T02040159  RH  076%=      5-min Rain = 0
KME1 160327Z 15002KT 20/16 A2997 RMK A01 T02030159  RH  075%=      5-min Rain = 0
KME1 160328Z 12002KT 20/16 A2997 RMK A01 T02030160  RH  076%=      5-min Rain = 0
KME1 160329Z 11003KT 20/16 A2997 RMK A01 T02030162  RH  077%=      5-min Rain = 0
KME1 160330Z 10003KT 20/16 A2997 RMK A01 T02030162  RH  077%=      5-min Rain = 0
KME1 160331Z 08003KT 20/16 A2997 RMK A01 T02030162  RH  077%=      5-min Rain = 0
KME1 160332Z 08004KT 20/16 A2997 RMK A01 T02020162  RH  078%=      5-min Rain = 0
KME1 160333Z 08003KT 20/16 A2997 RMK A01 T02010161  RH  078%=      5-min Rain = 0
KME1 160334Z 08003KT 20/16 A2998 RMK A01 T02010160  RH  077%=      5-min Rain = 0
KME1 160335Z 05003KT 20/16 A2998 RMK A01 T02010161  RH  078%=      5-min Rain = 0
KME1 160336Z 04004KT 20/16 A2998 RMK A01 T02010162  RH  079%=      5-min Rain = 0
KME1 160337Z 05003KT 20/16 A2998 RMK A01 T02000162  RH  079%=      5-min Rain = 0
KME1 160338Z 04004KT 20/16 A2998 RMK A01 T02000164  RH  079%=      5-min Rain = 0
KME1 160339Z 04004KT 20/16 A2998 RMK A01 T02000164  RH  080%=      5-min Rain = 0
KME1 160340Z 05004KT 20/16 A2998 RMK A01 T01990164  RH  080%=      5-min Rain = 0
KME1 160341Z 06004KT 20/17 A2998 RMK A01 T01990165  RH  081%=      5-min Rain = 0
KME1 160342Z 07004KT 20/17 A2998 RMK A01 T01990165  RH  081%=      5-min Rain = 0
KME1 160343Z 08003KT 20/16 A2999 RMK A01 T01980164  RH  080%=      5-min Rain = 0
KME1 160344Z 09004KT 20/16 A2999 RMK A01 T01980162  RH  080%=      5-min Rain = 0
KME1 160345Z 09004KT 20/16 A2999 RMK A01 T01980160  RH  079%=      5-min Rain = 0
KME1 160346Z 10005KT 20/16 A2999 RMK A01 T01980157  RH  077%=      5-min Rain = 0
KME1 160347Z 11006KT 20/16 A2999 RMK A01 T01980155  RH  076%=      5-min Rain = 0
KME1 160348Z 11006KT 20/15 A2999 RMK A01 T01990152  RH  074%=      5-min Rain = 0
KME1 160349Z 12006KT 20/15 A2999 RMK A01 T01990150  RH  073%=      5-min Rain = 0
KME1 160350Z 11007KT 20/15 A2999 RMK A01 T02000150  RH  073%=      5-min Rain = 0
KME1 160351Z 11008KT 20/15 A30 RMK A01 T02000148  RH  072%=      5-min Rain = 0
KME1 160352Z 11007KT 20/15 A30 RMK A01 T02000149  RH  072%=      5-min Rain = 0
KME1 160353Z 10008KT 20/15 A30 RMK A01 T02000148  RH  072%=      5-min Rain = 0
KME1 160354Z 09008KT 20/15 A30 RMK A01 T02000147  RH  071%=      5-min Rain = 0
KME1 160355Z 09006KT 20/15 A30 RMK A01 T02000146  RH  071%=      5-min Rain = 0
KME1 160356Z 09004KT 20/15 A30 RMK A01 T02000147  RH  072%=      5-min Rain = 0
KME1 160357Z 09003KT 20/15 A30 RMK A01 T02000148  RH  072%=      5-min Rain = 0
KME1 160358Z 09003KT 20/15 A30 RMK A01 T02000149  RH  073%=      5-min Rain = 0
KME1 160359Z 08002KT 20/15 A30 RMK A01 T01990151  RH  073%=      5-min Rain = 0
KME1 160400Z 07002KT 20/15 A30 RMK A01 T01990151  RH  074%=      5-min Rain = 0
KME1 160401Z 08002KT 20/15 A30 RMK A01 T01980152  RH  074%=      5-min Rain = 0
KME1 160402Z 08002KT 20/15 A30 RMK A01 T01980153  RH  075%=      5-min Rain = 0
KME1 160403Z 07004KT 20/15 A30 RMK A01 T01990154  RH  075%=      5-min Rain = 0
KME1 160404Z 08004KT 20/15 A30 RMK A01 T01980153  RH  075%=      5-min Rain = 0
KME1 160405Z 08005KT 20/15 A30 RMK A01 T01980153  RH  075%=      5-min Rain = 0
KME1 160406Z 09006KT 20/15 A3001 RMK A01 T01980153  RH  075%=      5-min Rain = 0
KME1 160407Z 10003KT 20/15 A3001 RMK A01 T01980153  RH  075%=      5-min Rain = 0
KME1 160408Z 10003KT 20/15 A3001 RMK A01 T01980153  RH  076%=      5-min Rain = 0
KME1 160409Z 10004KT 20/15 A3001 RMK A01 T01970153  RH  076%=      5-min Rain = 0
KME1 160410Z 09002KT 20/15 A3001 RMK A01 T01970152  RH  075%=      5-min Rain = 0
KME1 160411Z 11001KT 20/15 A3001 RMK A01 T01970154  RH  076%=      5-min Rain = 0
KME1 160412Z 10001KT 20/15 A3001 RMK A01 T01970152  RH  075%=      5-min Rain = 0
KME1 160413Z 09001KT 20/15 A3001 RMK A01 T01970152  RH  076%=      5-min Rain = 0
KME1 160414Z 10002KT 20/15 A3001 RMK A01 T01960153  RH  076%=      5-min Rain = 0
KME1 160415Z 11001KT 20/15 A3001 RMK A01 T01960152  RH  075%=      5-min Rain = 0
KME1 160416Z 11001KT 20/15 A3001 RMK A01 T01970152  RH  075%=      5-min Rain = 0
KME1 160417Z 10002KT 20/15 A30 RMK A01 T01970152  RH  076%=      5-min Rain = 0
KME1 160418Z 11003KT 20/15 A30 RMK A01 T01960153  RH  076%=      5-min Rain = 0
KME1 160419Z 10003KT 20/15 A30 RMK A01 T01970152  RH  076%=      5-min Rain = 0
KME1 160420Z 10003KT 20/15 A30 RMK A01 T01970153  RH  076%=      5-min Rain = 0
KME1 160421Z 10003KT 20/15 A30 RMK A01 T01960153  RH  076%=      5-min Rain = 0
KME1 160422Z 08002KT 20/15 A3001 RMK A01 T01960153  RH  076%=      5-min Rain = 0
KME1 160423Z 07002KT 20/15 A3001 RMK A01 T01960154  RH  077%=      5-min Rain = 0
KME1 160424Z 07002KT 20/15 A3001 RMK A01 T01960154  RH  077%=      5-min Rain = 0
KME1 160425Z 06003KT 20/15 A3001 RMK A01 T01950153  RH  077%=      5-min Rain = 0
KME1 160426Z 05003KT 20/15 A3001 RMK A01 T01950151  RH  076%=      5-min Rain = 0
KME1 160427Z 05003KT 20/15 A3001 RMK A01 T01950152  RH  076%=      5-min Rain = 0
KME1 160428Z 05004KT 20/15 A3001 RMK A01 T01960151  RH  075%=      5-min Rain = 0
KME1 160429Z 05004KT 20/15 A3001 RMK A01 T01960152  RH  076%=      5-min Rain = 0
KME1 160430Z 06004KT 20/15 A3001 RMK A01 T01950152  RH  076%=      5-min Rain = 0
KME1 160431Z 07005KT 20/15 A3001 RMK A01 T01950149  RH  075%=      5-min Rain = 0
KME1 160432Z 07005KT 20/15 A3001 RMK A01 T01950149  RH  075%=      5-min Rain = 0
KME1 160433Z 07005KT 20/15 A3001 RMK A01 T01950148  RH  074%=      5-min Rain = 0
KME1 160434Z 06004KT 20/15 A3001 RMK A01 T01950147  RH  074%=      5-min Rain = 0
KME1 160435Z 05004KT 20/15 A3001 RMK A01 T01950148  RH  074%=      5-min Rain = 0
KME1 160436Z 06003KT 20/15 A3001 RMK A01 T01950149  RH  075%=      5-min Rain = 0
KME1 160437Z 07003KT 20/15 A3001 RMK A01 T01950148  RH  074%=      5-min Rain = 0
KME1 160438Z 07002KT 19/15 A3001 RMK A01 T01940148  RH  074%=      5-min Rain = 0
KME1 160439Z 06002KT 20/15 A3001 RMK A01 T01950148  RH  074%=      5-min Rain = 0
KME1 160440Z 06002KT 19/15 A3001 RMK A01 T01940149  RH  075%=      5-min Rain = 0
KME1 160441Z 07003KT 19/15 A3001 RMK A01 T01940150  RH  075%=      5-min Rain = 0
KME1 160442Z 08003KT 19/15 A3001 RMK A01 T01940149  RH  075%=      5-min Rain = 0
KME1 160443Z 07004KT 19/15 A3001 RMK A01 T01940149  RH  075%=      5-min Rain = 0
KME1 160444Z 06004KT 19/15 A3001 RMK A01 T01930148  RH  075%=      5-min Rain = 0
KME1 160445Z 06005KT 19/15 A3001 RMK A01 T01930148  RH  075%=      5-min Rain = 0
KME1 160446Z 05003KT 19/15 A3001 RMK A01 T01930149  RH  076%=      5-min Rain = 0
KME1 160447Z 05004KT 19/15 A3001 RMK A01 T01930149  RH  076%=      5-min Rain = 0
KME1 160448Z 05005KT 19/15 A3001 RMK A01 T01920150  RH  076%=      5-min Rain = 0
KME1 160449Z 05004KT 19/15 A3001 RMK A01 T01920150  RH  077%=      5-min Rain = 0
KME1 160450Z 04005KT 19/15 A3001 RMK A01 T01910149  RH  076%=      5-min Rain = 0
KME1 160451Z 04005KT 19/15 A3001 RMK A01 T01910150  RH  077%=      5-min Rain = 0
KME1 160452Z 05004KT 19/15 A3002 RMK A01 T01910150  RH  077%=      5-min Rain = 0
KME1 160453Z 06003KT 19/15 A3002 RMK A01 T01910150  RH  077%=      5-min Rain = 0
KME1 160454Z 05003KT 19/15 A3002 RMK A01 T01900150  RH  077%=      5-min Rain = 0
KME1 160455Z 05003KT 19/15 A3002 RMK A01 T01910151  RH  078%=      5-min Rain = 0
KME1 160456Z 04003KT 19/15 A3002 RMK A01 T01900150  RH  078%=      5-min Rain = 0
KME1 160457Z 05002KT 19/15 A3002 RMK A01 T01900150  RH  078%=      5-min Rain = 0
KME1 160458Z 06002KT 19/15 A3002 RMK A01 T01900151  RH  078%=      5-min Rain = 0
KME1 160459Z 07001KT 19/15 A3002 RMK A01 T01900151  RH  078%=      5-min Rain = 0

Page generated in 0.1631 seconds.